<?xml version="1.0" encoding="UTF-8"?>
<gpx version="1.0" creator="Trackator" xmlns:xsi="http://www.w3.org/2001/XMLSchema-instance" xmlns="http://www.topografix.com/GPX/1/0" xmlns:topografix="http://www.topografix.com/GPX/Private/TopoGrafix/0/1" xsi:schemaLocation="http://www.topografix.com/GPX/1/0 http://www.topografix.com/GPX/1/0/gpx.xsd http://www.topografix.com/GPX/Private/TopoGrafix/0/1 http://www.topografix.com/GPX/Private/TopoGrafix/0/1/topografix.xsd">
<metadata>
<link href="http://www.trackalia.com/trackatorweb.php">
<text>Trackator</text>
</link>
</metadata>
<time>2017-08-22T11:01:41Z</time>
<trk>
<name>Track: </name>
<desc></desc>
<trkseg>
<trkpt lat="53.1475703" lon="18.1142166">
<ele>86</ele>
<time>2017-08-22T11:01:41Z</time>
</trkpt>
<trkpt lat="53.1475635" lon="18.1142352">
<ele>95</ele>
<time>2017-08-22T11:01:43Z</time>
</trkpt>
<trkpt lat="53.1475635" lon="18.1142352">
<ele>95</ele>
<time>2017-08-22T11:01:45Z</time>
</trkpt>
<trkpt lat="53.1475635" lon="18.1142352">
<ele>95</ele>
<time>2017-08-22T11:01:47Z</time>
</trkpt>
<trkpt lat="53.1475635" lon="18.1142352">
<ele>95</ele>
<time>2017-08-22T11:01:49Z</time>
</trkpt>
<trkpt lat="53.1475635" lon="18.1142352">
<ele>95</ele>
<time>2017-08-22T11:01:51Z</time>
</trkpt>
<trkpt lat="53.1475635" lon="18.1142352">
<ele>95</ele>
<time>2017-08-22T11:01:53Z</time>
</trkpt>
<trkpt lat="53.1475635" lon="18.1142352">
<ele>95</ele>
<time>2017-08-22T11:01:55Z</time>
</trkpt>
<trkpt lat="53.1475635" lon="18.1142352">
<ele>95</ele>
<time>2017-08-22T11:01:57Z</time>
</trkpt>
<trkpt lat="53.1475635" lon="18.1142352">
<ele>95</ele>
<time>2017-08-22T11:01:59Z</time>
</trkpt>
<trkpt lat="53.1475635" lon="18.1142352">
<ele>95</ele>
<time>2017-08-22T11:02:01Z</time>
</trkpt>
<trkpt lat="53.1475635" lon="18.1142352">
<ele>95</ele>
<time>2017-08-22T11:02:03Z</time>
</trkpt>
<trkpt lat="53.1475635" lon="18.1142352">
<ele>95</ele>
<time>2017-08-22T11:02:05Z</time>
</trkpt>
<trkpt lat="53.1475635" lon="18.1142352">
<ele>95</ele>
<time>2017-08-22T11:02:07Z</time>
</trkpt>
<trkpt lat="53.1475635" lon="18.1142352">
<ele>95</ele>
<time>2017-08-22T11:02:09Z</time>
</trkpt>
<trkpt lat="53.1475635" lon="18.1142352">
<ele>95</ele>
<time>2017-08-22T11:02:11Z</time>
</trkpt>
<trkpt lat="53.1475635" lon="18.1142352">
<ele>95</ele>
<time>2017-08-22T11:02:13Z</time>
</trkpt>
<trkpt lat="53.1475635" lon="18.1142352">
<ele>95</ele>
<time>2017-08-22T11:02:15Z</time>
</trkpt>
<trkpt lat="53.1475635" lon="18.1142352">
<ele>95</ele>
<time>2017-08-22T11:02:17Z</time>
</trkpt>
<trkpt lat="53.1475635" lon="18.1142352">
<ele>95</ele>
<time>2017-08-22T11:02:19Z</time>
</trkpt>
<trkpt lat="53.1475635" lon="18.1142352">
<ele>95</ele>
<time>2017-08-22T11:02:21Z</time>
</trkpt>
<trkpt lat="53.1475635" lon="18.1142352">
<ele>95</ele>
<time>2017-08-22T11:02:23Z</time>
</trkpt>
<trkpt lat="53.1475659" lon="18.1142327">
<ele>96</ele>
<time>2017-08-22T11:02:25Z</time>
</trkpt>
<trkpt lat="53.1475688" lon="18.1142258">
<ele>95</ele>
<time>2017-08-22T11:02:27Z</time>
</trkpt>
<trkpt lat="53.1475664" lon="18.1142143">
<ele>95</ele>
<time>2017-08-22T11:02:29Z</time>
</trkpt>
<trkpt lat="53.1475664" lon="18.1142143">
<ele>95</ele>
<time>2017-08-22T11:02:31Z</time>
</trkpt>
<trkpt lat="53.1475664" lon="18.1142143">
<ele>95</ele>
<time>2017-08-22T11:02:33Z</time>
</trkpt>
<trkpt lat="53.1475664" lon="18.1142143">
<ele>95</ele>
<time>2017-08-22T11:02:35Z</time>
</trkpt>
<trkpt lat="53.1475664" lon="18.1142143">
<ele>95</ele>
<time>2017-08-22T11:02:37Z</time>
</trkpt>
<trkpt lat="53.1475664" lon="18.1142143">
<ele>95</ele>
<time>2017-08-22T11:02:39Z</time>
</trkpt>
<trkpt lat="53.1475664" lon="18.1142143">
<ele>95</ele>
<time>2017-08-22T11:02:41Z</time>
</trkpt>
<trkpt lat="53.1475664" lon="18.1142143">
<ele>95</ele>
<time>2017-08-22T11:02:43Z</time>
</trkpt>
<trkpt lat="53.1475664" lon="18.1142143">
<ele>95</ele>
<time>2017-08-22T11:02:45Z</time>
</trkpt>
<trkpt lat="53.1475664" lon="18.1142143">
<ele>95</ele>
<time>2017-08-22T11:02:47Z</time>
</trkpt>
<trkpt lat="53.1475664" lon="18.1142143">
<ele>95</ele>
<time>2017-08-22T11:02:49Z</time>
</trkpt>
<trkpt lat="53.1475664" lon="18.1142143">
<ele>95</ele>
<time>2017-08-22T11:02:51Z</time>
</trkpt>
<trkpt lat="53.1475664" lon="18.1142143">
<ele>95</ele>
<time>2017-08-22T11:02:53Z</time>
</trkpt>
<trkpt lat="53.1475664" lon="18.1142143">
<ele>95</ele>
<time>2017-08-22T11:02:55Z</time>
</trkpt>
<trkpt lat="53.1475664" lon="18.1142143">
<ele>95</ele>
<time>2017-08-22T11:02:57Z</time>
</trkpt>
<trkpt lat="53.1475664" lon="18.1142143">
<ele>95</ele>
<time>2017-08-22T11:02:59Z</time>
</trkpt>
<trkpt lat="53.1475664" lon="18.1142143">
<ele>95</ele>
<time>2017-08-22T11:03:01Z</time>
</trkpt>
<trkpt lat="53.1475664" lon="18.1142143">
<ele>95</ele>
<time>2017-08-22T11:03:03Z</time>
</trkpt>
<trkpt lat="53.1475664" lon="18.1142143">
<ele>95</ele>
<time>2017-08-22T11:03:05Z</time>
</trkpt>
<trkpt lat="53.1475664" lon="18.1142143">
<ele>95</ele>
<time>2017-08-22T11:03:07Z</time>
</trkpt>
<trkpt lat="53.1475664" lon="18.1142143">
<ele>95</ele>
<time>2017-08-22T11:03:09Z</time>
</trkpt>
<trkpt lat="53.1475664" lon="18.1142143">
<ele>95</ele>
<time>2017-08-22T11:03:11Z</time>
</trkpt>
<trkpt lat="53.1475664" lon="18.1142143">
<ele>95</ele>
<time>2017-08-22T11:03:13Z</time>
</trkpt>
<trkpt lat="53.1475664" lon="18.1142143">
<ele>95</ele>
<time>2017-08-22T11:03:15Z</time>
</trkpt>
<trkpt lat="53.1475664" lon="18.1142143">
<ele>95</ele>
<time>2017-08-22T11:03:17Z</time>
</trkpt>
<trkpt lat="53.1475664" lon="18.1142143">
<ele>95</ele>
<time>2017-08-22T11:03:19Z</time>
</trkpt>
<trkpt lat="53.1475664" lon="18.1142143">
<ele>95</ele>
<time>2017-08-22T11:03:21Z</time>
</trkpt>
<trkpt lat="53.1475664" lon="18.1142143">
<ele>95</ele>
<time>2017-08-22T11:03:23Z</time>
</trkpt>
<trkpt lat="53.1475664" lon="18.1142143">
<ele>95</ele>
<time>2017-08-22T11:03:25Z</time>
</trkpt>
<trkpt lat="53.1475664" lon="18.1142143">
<ele>95</ele>
<time>2017-08-22T11:03:27Z</time>
</trkpt>
<trkpt lat="53.1475664" lon="18.1142143">
<ele>95</ele>
<time>2017-08-22T11:03:29Z</time>
</trkpt>
<trkpt lat="53.1475664" lon="18.1142143">
<ele>95</ele>
<time>2017-08-22T11:03:31Z</time>
</trkpt>
<trkpt lat="53.1475664" lon="18.1142143">
<ele>95</ele>
<time>2017-08-22T11:03:33Z</time>
</trkpt>
<trkpt lat="53.1475664" lon="18.1142143">
<ele>95</ele>
<time>2017-08-22T11:03:35Z</time>
</trkpt>
<trkpt lat="53.1475664" lon="18.1142143">
<ele>95</ele>
<time>2017-08-22T11:03:37Z</time>
</trkpt>
<trkpt lat="53.1475664" lon="18.1142143">
<ele>95</ele>
<time>2017-08-22T11:03:39Z</time>
</trkpt>
<trkpt lat="53.1475664" lon="18.1142143">
<ele>95</ele>
<time>2017-08-22T11:03:41Z</time>
</trkpt>
<trkpt lat="53.1475664" lon="18.1142143">
<ele>95</ele>
<time>2017-08-22T11:03:43Z</time>
</trkpt>
<trkpt lat="53.1475664" lon="18.1142143">
<ele>95</ele>
<time>2017-08-22T11:03:45Z</time>
</trkpt>
<trkpt lat="53.1475664" lon="18.1142143">
<ele>95</ele>
<time>2017-08-22T11:03:47Z</time>
</trkpt>
<trkpt lat="53.1475664" lon="18.1142143">
<ele>95</ele>
<time>2017-08-22T11:03:49Z</time>
</trkpt>
<trkpt lat="53.1475664" lon="18.1142143">
<ele>95</ele>
<time>2017-08-22T11:03:51Z</time>
</trkpt>
<trkpt lat="53.1475664" lon="18.1142143">
<ele>95</ele>
<time>2017-08-22T11:03:53Z</time>
</trkpt>
<trkpt lat="53.1475664" lon="18.1142143">
<ele>95</ele>
<time>2017-08-22T11:03:55Z</time>
</trkpt>
<trkpt lat="53.1475664" lon="18.1142143">
<ele>95</ele>
<time>2017-08-22T11:03:57Z</time>
</trkpt>
<trkpt lat="53.1475664" lon="18.1142143">
<ele>95</ele>
<time>2017-08-22T11:03:59Z</time>
</trkpt>
<trkpt lat="53.1475664" lon="18.1142143">
<ele>95</ele>
<time>2017-08-22T11:04:01Z</time>
</trkpt>
<trkpt lat="53.1475664" lon="18.1142143">
<ele>95</ele>
<time>2017-08-22T11:04:03Z</time>
</trkpt>
<trkpt lat="53.1475664" lon="18.1142143">
<ele>95</ele>
<time>2017-08-22T11:04:05Z</time>
</trkpt>
<trkpt lat="53.1475664" lon="18.1142143">
<ele>95</ele>
<time>2017-08-22T11:04:07Z</time>
</trkpt>
<trkpt lat="53.1475664" lon="18.1142143">
<ele>95</ele>
<time>2017-08-22T11:04:09Z</time>
</trkpt>
<trkpt lat="53.1475664" lon="18.1142143">
<ele>95</ele>
<time>2017-08-22T11:04:11Z</time>
</trkpt>
<trkpt lat="53.1475664" lon="18.1142143">
<ele>95</ele>
<time>2017-08-22T11:04:13Z</time>
</trkpt>
<trkpt lat="53.1475664" lon="18.1142143">
<ele>95</ele>
<time>2017-08-22T11:04:15Z</time>
</trkpt>
<trkpt lat="53.1475664" lon="18.1142143">
<ele>95</ele>
<time>2017-08-22T11:04:17Z</time>
</trkpt>
<trkpt lat="53.1475664" lon="18.1142143">
<ele>95</ele>
<time>2017-08-22T11:04:19Z</time>
</trkpt>
<trkpt lat="53.1475664" lon="18.1142143">
<ele>95</ele>
<time>2017-08-22T11:04:21Z</time>
</trkpt>
<trkpt lat="53.1475664" lon="18.1142143">
<ele>95</ele>
<time>2017-08-22T11:04:23Z</time>
</trkpt>
<trkpt lat="53.1475664" lon="18.1142143">
<ele>95</ele>
<time>2017-08-22T11:04:25Z</time>
</trkpt>
<trkpt lat="53.1475664" lon="18.1142143">
<ele>95</ele>
<time>2017-08-22T11:04:27Z</time>
</trkpt>
<trkpt lat="53.1475664" lon="18.1142143">
<ele>95</ele>
<time>2017-08-22T11:04:29Z</time>
</trkpt>
<trkpt lat="53.1475651" lon="18.1142252">
<ele>96</ele>
<time>2017-08-22T11:04:31Z</time>
</trkpt>
<trkpt lat="53.1475595" lon="18.1142246">
<ele>96</ele>
<time>2017-08-22T11:04:33Z</time>
</trkpt>
<trkpt lat="53.1475595" lon="18.1142246">
<ele>96</ele>
<time>2017-08-22T11:04:35Z</time>
</trkpt>
<trkpt lat="53.1475595" lon="18.1142246">
<ele>96</ele>
<time>2017-08-22T11:04:37Z</time>
</trkpt>
<trkpt lat="53.1475595" lon="18.1142246">
<ele>96</ele>
<time>2017-08-22T11:04:39Z</time>
</trkpt>
<trkpt lat="53.1475595" lon="18.1142246">
<ele>96</ele>
<time>2017-08-22T11:04:41Z</time>
</trkpt>
<trkpt lat="53.1475595" lon="18.1142246">
<ele>96</ele>
<time>2017-08-22T11:04:43Z</time>
</trkpt>
<trkpt lat="53.1475595" lon="18.1142246">
<ele>96</ele>
<time>2017-08-22T11:04:45Z</time>
</trkpt>
<trkpt lat="53.1475595" lon="18.1142246">
<ele>96</ele>
<time>2017-08-22T11:04:47Z</time>
</trkpt>
<trkpt lat="53.1475595" lon="18.1142246">
<ele>96</ele>
<time>2017-08-22T11:04:49Z</time>
</trkpt>
<trkpt lat="53.1475595" lon="18.1142246">
<ele>96</ele>
<time>2017-08-22T11:04:51Z</time>
</trkpt>
<trkpt lat="53.1475595" lon="18.1142246">
<ele>96</ele>
<time>2017-08-22T11:04:53Z</time>
</trkpt>
<trkpt lat="53.1475595" lon="18.1142246">
<ele>96</ele>
<time>2017-08-22T11:04:55Z</time>
</trkpt>
<trkpt lat="53.1475595" lon="18.1142246">
<ele>96</ele>
<time>2017-08-22T11:04:57Z</time>
</trkpt>
<trkpt lat="53.1475595" lon="18.1142246">
<ele>96</ele>
<time>2017-08-22T11:04:59Z</time>
</trkpt>
<trkpt lat="53.1475595" lon="18.1142246">
<ele>96</ele>
<time>2017-08-22T11:05:01Z</time>
</trkpt>
<trkpt lat="53.1475595" lon="18.1142246">
<ele>96</ele>
<time>2017-08-22T11:05:03Z</time>
</trkpt>
<trkpt lat="53.1475595" lon="18.1142246">
<ele>96</ele>
<time>2017-08-22T11:05:05Z</time>
</trkpt>
<trkpt lat="53.1475595" lon="18.1142246">
<ele>96</ele>
<time>2017-08-22T11:05:07Z</time>
</trkpt>
<trkpt lat="53.1475595" lon="18.1142246">
<ele>96</ele>
<time>2017-08-22T11:05:09Z</time>
</trkpt>
<trkpt lat="53.1475595" lon="18.1142246">
<ele>96</ele>
<time>2017-08-22T11:05:11Z</time>
</trkpt>
<trkpt lat="53.1475595" lon="18.1142246">
<ele>96</ele>
<time>2017-08-22T11:05:13Z</time>
</trkpt>
<trkpt lat="53.1475595" lon="18.1142246">
<ele>96</ele>
<time>2017-08-22T11:05:15Z</time>
</trkpt>
<trkpt lat="53.1475595" lon="18.1142246">
<ele>96</ele>
<time>2017-08-22T11:05:17Z</time>
</trkpt>
<trkpt lat="53.1475595" lon="18.1142246">
<ele>96</ele>
<time>2017-08-22T11:05:19Z</time>
</trkpt>
<trkpt lat="53.1475595" lon="18.1142246">
<ele>96</ele>
<time>2017-08-22T11:05:21Z</time>
</trkpt>
<trkpt lat="53.1475595" lon="18.1142246">
<ele>96</ele>
<time>2017-08-22T11:05:23Z</time>
</trkpt>
<trkpt lat="53.1475595" lon="18.1142246">
<ele>96</ele>
<time>2017-08-22T11:05:25Z</time>
</trkpt>
<trkpt lat="53.1475595" lon="18.1142246">
<ele>96</ele>
<time>2017-08-22T11:05:27Z</time>
</trkpt>
<trkpt lat="53.1475595" lon="18.1142246">
<ele>96</ele>
<time>2017-08-22T11:05:29Z</time>
</trkpt>
<trkpt lat="53.1475595" lon="18.1142246">
<ele>96</ele>
<time>2017-08-22T11:05:31Z</time>
</trkpt>
<trkpt lat="53.1475595" lon="18.1142246">
<ele>96</ele>
<time>2017-08-22T11:05:33Z</time>
</trkpt>
<trkpt lat="53.1475595" lon="18.1142246">
<ele>96</ele>
<time>2017-08-22T11:05:35Z</time>
</trkpt>
<trkpt lat="53.1475595" lon="18.1142246">
<ele>96</ele>
<time>2017-08-22T11:05:37Z</time>
</trkpt>
<trkpt lat="53.1475595" lon="18.1142246">
<ele>96</ele>
<time>2017-08-22T11:05:39Z</time>
</trkpt>
<trkpt lat="53.1475595" lon="18.1142246">
<ele>96</ele>
<time>2017-08-22T11:05:41Z</time>
</trkpt>
<trkpt lat="53.1475595" lon="18.1142246">
<ele>96</ele>
<time>2017-08-22T11:05:43Z</time>
</trkpt>
<trkpt lat="53.1475595" lon="18.1142246">
<ele>96</ele>
<time>2017-08-22T11:05:45Z</time>
</trkpt>
<trkpt lat="53.1475595" lon="18.1142246">
<ele>96</ele>
<time>2017-08-22T11:05:47Z</time>
</trkpt>
<trkpt lat="53.1475595" lon="18.1142246">
<ele>96</ele>
<time>2017-08-22T11:05:49Z</time>
</trkpt>
<trkpt lat="53.1475595" lon="18.1142246">
<ele>96</ele>
<time>2017-08-22T11:05:51Z</time>
</trkpt>
<trkpt lat="53.1475595" lon="18.1142246">
<ele>96</ele>
<time>2017-08-22T11:05:53Z</time>
</trkpt>
<trkpt lat="53.1475595" lon="18.1142246">
<ele>96</ele>
<time>2017-08-22T11:05:55Z</time>
</trkpt>
<trkpt lat="53.1475595" lon="18.1142246">
<ele>96</ele>
<time>2017-08-22T11:05:57Z</time>
</trkpt>
<trkpt lat="53.1475595" lon="18.1142246">
<ele>96</ele>
<time>2017-08-22T11:05:59Z</time>
</trkpt>
<trkpt lat="53.1475595" lon="18.1142246">
<ele>96</ele>
<time>2017-08-22T11:06:01Z</time>
</trkpt>
<trkpt lat="53.1475595" lon="18.1142246">
<ele>96</ele>
<time>2017-08-22T11:06:03Z</time>
</trkpt>
<trkpt lat="53.1475595" lon="18.1142246">
<ele>96</ele>
<time>2017-08-22T11:06:05Z</time>
</trkpt>
<trkpt lat="53.1475595" lon="18.1142246">
<ele>96</ele>
<time>2017-08-22T11:06:07Z</time>
</trkpt>
<trkpt lat="53.1475595" lon="18.1142246">
<ele>96</ele>
<time>2017-08-22T11:06:09Z</time>
</trkpt>
<trkpt lat="53.1475595" lon="18.1142246">
<ele>96</ele>
<time>2017-08-22T11:06:11Z</time>
</trkpt>
<trkpt lat="53.1475595" lon="18.1142246">
<ele>96</ele>
<time>2017-08-22T11:06:13Z</time>
</trkpt>
<trkpt lat="53.1475595" lon="18.1142246">
<ele>96</ele>
<time>2017-08-22T11:06:15Z</time>
</trkpt>
<trkpt lat="53.1475595" lon="18.1142246">
<ele>96</ele>
<time>2017-08-22T11:06:17Z</time>
</trkpt>
<trkpt lat="53.1475595" lon="18.1142246">
<ele>96</ele>
<time>2017-08-22T11:06:19Z</time>
</trkpt>
<trkpt lat="53.1475595" lon="18.1142246">
<ele>96</ele>
<time>2017-08-22T11:06:21Z</time>
</trkpt>
<trkpt lat="53.1475595" lon="18.1142246">
<ele>96</ele>
<time>2017-08-22T11:06:23Z</time>
</trkpt>
<trkpt lat="53.1475595" lon="18.1142246">
<ele>96</ele>
<time>2017-08-22T11:06:25Z</time>
</trkpt>
<trkpt lat="53.1475595" lon="18.1142246">
<ele>96</ele>
<time>2017-08-22T11:06:27Z</time>
</trkpt>
<trkpt lat="53.1475595" lon="18.1142246">
<ele>96</ele>
<time>2017-08-22T11:06:29Z</time>
</trkpt>
<trkpt lat="53.1475595" lon="18.1142246">
<ele>96</ele>
<time>2017-08-22T11:06:31Z</time>
</trkpt>
<trkpt lat="53.1475595" lon="18.1142246">
<ele>96</ele>
<time>2017-08-22T11:06:33Z</time>
</trkpt>
<trkpt lat="53.1475595" lon="18.1142246">
<ele>96</ele>
<time>2017-08-22T11:06:35Z</time>
</trkpt>
<trkpt lat="53.1475595" lon="18.1142246">
<ele>96</ele>
<time>2017-08-22T11:06:37Z</time>
</trkpt>
<trkpt lat="53.1475595" lon="18.1142246">
<ele>96</ele>
<time>2017-08-22T11:06:39Z</time>
</trkpt>
<trkpt lat="53.1475595" lon="18.1142246">
<ele>96</ele>
<time>2017-08-22T11:06:41Z</time>
</trkpt>
<trkpt lat="53.1475595" lon="18.1142246">
<ele>96</ele>
<time>2017-08-22T11:06:43Z</time>
</trkpt>
<trkpt lat="53.1475595" lon="18.1142246">
<ele>96</ele>
<time>2017-08-22T11:06:45Z</time>
</trkpt>
<trkpt lat="53.1475595" lon="18.1142246">
<ele>96</ele>
<time>2017-08-22T11:06:47Z</time>
</trkpt>
<trkpt lat="53.1475595" lon="18.1142246">
<ele>96</ele>
<time>2017-08-22T11:06:49Z</time>
</trkpt>
<trkpt lat="53.1475595" lon="18.1142246">
<ele>96</ele>
<time>2017-08-22T11:06:51Z</time>
</trkpt>
<trkpt lat="53.1475595" lon="18.1142246">
<ele>96</ele>
<time>2017-08-22T11:06:53Z</time>
</trkpt>
<trkpt lat="53.1475595" lon="18.1142246">
<ele>96</ele>
<time>2017-08-22T11:06:55Z</time>
</trkpt>
<trkpt lat="53.1475595" lon="18.1142246">
<ele>96</ele>
<time>2017-08-22T11:06:57Z</time>
</trkpt>
<trkpt lat="53.1475595" lon="18.1142246">
<ele>96</ele>
<time>2017-08-22T11:06:59Z</time>
</trkpt>
<trkpt lat="53.1475595" lon="18.1142246">
<ele>96</ele>
<time>2017-08-22T11:07:01Z</time>
</trkpt>
<trkpt lat="53.1475595" lon="18.1142246">
<ele>96</ele>
<time>2017-08-22T11:07:03Z</time>
</trkpt>
<trkpt lat="53.1475595" lon="18.1142246">
<ele>96</ele>
<time>2017-08-22T11:07:05Z</time>
</trkpt>
<trkpt lat="53.1475595" lon="18.1142246">
<ele>96</ele>
<time>2017-08-22T11:07:07Z</time>
</trkpt>
<trkpt lat="53.1475595" lon="18.1142246">
<ele>96</ele>
<time>2017-08-22T11:07:09Z</time>
</trkpt>
<trkpt lat="53.1475595" lon="18.1142246">
<ele>96</ele>
<time>2017-08-22T11:07:11Z</time>
</trkpt>
<trkpt lat="53.1475595" lon="18.1142246">
<ele>96</ele>
<time>2017-08-22T11:07:13Z</time>
</trkpt>
<trkpt lat="53.1475595" lon="18.1142246">
<ele>96</ele>
<time>2017-08-22T11:07:15Z</time>
</trkpt>
<trkpt lat="53.1475595" lon="18.1142246">
<ele>96</ele>
<time>2017-08-22T11:07:17Z</time>
</trkpt>
<trkpt lat="53.1475595" lon="18.1142246">
<ele>96</ele>
<time>2017-08-22T11:07:19Z</time>
</trkpt>
<trkpt lat="53.1475595" lon="18.1142246">
<ele>96</ele>
<time>2017-08-22T11:07:21Z</time>
</trkpt>
<trkpt lat="53.1475595" lon="18.1142246">
<ele>96</ele>
<time>2017-08-22T11:07:23Z</time>
</trkpt>
<trkpt lat="53.1475595" lon="18.1142246">
<ele>96</ele>
<time>2017-08-22T11:07:25Z</time>
</trkpt>
<trkpt lat="53.1475595" lon="18.1142246">
<ele>96</ele>
<time>2017-08-22T11:07:27Z</time>
</trkpt>
<trkpt lat="53.1475595" lon="18.1142246">
<ele>96</ele>
<time>2017-08-22T11:07:29Z</time>
</trkpt>
<trkpt lat="53.1475595" lon="18.1142246">
<ele>96</ele>
<time>2017-08-22T11:07:31Z</time>
</trkpt>
<trkpt lat="53.1475595" lon="18.1142246">
<ele>96</ele>
<time>2017-08-22T11:07:33Z</time>
</trkpt>
<trkpt lat="53.1475595" lon="18.1142246">
<ele>96</ele>
<time>2017-08-22T11:07:35Z</time>
</trkpt>
<trkpt lat="53.1475595" lon="18.1142246">
<ele>96</ele>
<time>2017-08-22T11:07:37Z</time>
</trkpt>
<trkpt lat="53.1475595" lon="18.1142246">
<ele>96</ele>
<time>2017-08-22T11:07:39Z</time>
</trkpt>
<trkpt lat="53.1475595" lon="18.1142246">
<ele>96</ele>
<time>2017-08-22T11:07:41Z</time>
</trkpt>
<trkpt lat="53.1475595" lon="18.1142246">
<ele>96</ele>
<time>2017-08-22T11:07:43Z</time>
</trkpt>
<trkpt lat="53.1475595" lon="18.1142246">
<ele>96</ele>
<time>2017-08-22T11:07:45Z</time>
</trkpt>
<trkpt lat="53.1475595" lon="18.1142246">
<ele>96</ele>
<time>2017-08-22T11:07:47Z</time>
</trkpt>
<trkpt lat="53.1475595" lon="18.1142246">
<ele>96</ele>
<time>2017-08-22T11:07:49Z</time>
</trkpt>
<trkpt lat="53.1475595" lon="18.1142246">
<ele>96</ele>
<time>2017-08-22T11:07:51Z</time>
</trkpt>
<trkpt lat="53.1475595" lon="18.1142246">
<ele>96</ele>
<time>2017-08-22T11:07:53Z</time>
</trkpt>
<trkpt lat="53.1475595" lon="18.1142246">
<ele>96</ele>
<time>2017-08-22T11:07:55Z</time>
</trkpt>
<trkpt lat="53.1475595" lon="18.1142246">
<ele>96</ele>
<time>2017-08-22T11:07:57Z</time>
</trkpt>
<trkpt lat="53.1475595" lon="18.1142246">
<ele>96</ele>
<time>2017-08-22T11:07:59Z</time>
</trkpt>
<trkpt lat="53.1475595" lon="18.1142246">
<ele>96</ele>
<time>2017-08-22T11:08:01Z</time>
</trkpt>
<trkpt lat="53.1475595" lon="18.1142246">
<ele>96</ele>
<time>2017-08-22T11:08:03Z</time>
</trkpt>
<trkpt lat="53.1475595" lon="18.1142246">
<ele>96</ele>
<time>2017-08-22T11:08:05Z</time>
</trkpt>
<trkpt lat="53.1475595" lon="18.1142246">
<ele>96</ele>
<time>2017-08-22T11:08:07Z</time>
</trkpt>
<trkpt lat="53.1475595" lon="18.1142246">
<ele>96</ele>
<time>2017-08-22T11:08:09Z</time>
</trkpt>
<trkpt lat="53.1475595" lon="18.1142246">
<ele>96</ele>
<time>2017-08-22T11:08:11Z</time>
</trkpt>
<trkpt lat="53.1475595" lon="18.1142246">
<ele>96</ele>
<time>2017-08-22T11:08:13Z</time>
</trkpt>
<trkpt lat="53.1475595" lon="18.1142246">
<ele>96</ele>
<time>2017-08-22T11:08:15Z</time>
</trkpt>
<trkpt lat="53.1475595" lon="18.1142246">
<ele>96</ele>
<time>2017-08-22T11:08:17Z</time>
</trkpt>
<trkpt lat="53.1475595" lon="18.1142246">
<ele>96</ele>
<time>2017-08-22T11:08:19Z</time>
</trkpt>
<trkpt lat="53.1475595" lon="18.1142246">
<ele>96</ele>
<time>2017-08-22T11:08:21Z</time>
</trkpt>
<trkpt lat="53.1475595" lon="18.1142246">
<ele>96</ele>
<time>2017-08-22T11:08:23Z</time>
</trkpt>
<trkpt lat="53.1475595" lon="18.1142246">
<ele>96</ele>
<time>2017-08-22T11:08:25Z</time>
</trkpt>
<trkpt lat="53.1475595" lon="18.1142246">
<ele>96</ele>
<time>2017-08-22T11:08:27Z</time>
</trkpt>
<trkpt lat="53.1475595" lon="18.1142246">
<ele>96</ele>
<time>2017-08-22T11:08:29Z</time>
</trkpt>
<trkpt lat="53.1475595" lon="18.1142246">
<ele>96</ele>
<time>2017-08-22T11:08:31Z</time>
</trkpt>
<trkpt lat="53.1475595" lon="18.1142246">
<ele>96</ele>
<time>2017-08-22T11:08:33Z</time>
</trkpt>
<trkpt lat="53.1475595" lon="18.1142246">
<ele>96</ele>
<time>2017-08-22T11:08:35Z</time>
</trkpt>
<trkpt lat="53.1475595" lon="18.1142246">
<ele>96</ele>
<time>2017-08-22T11:08:37Z</time>
</trkpt>
<trkpt lat="53.1475595" lon="18.1142246">
<ele>96</ele>
<time>2017-08-22T11:08:39Z</time>
</trkpt>
<trkpt lat="53.1475595" lon="18.1142246">
<ele>96</ele>
<time>2017-08-22T11:08:41Z</time>
</trkpt>
<trkpt lat="53.1475595" lon="18.1142246">
<ele>96</ele>
<time>2017-08-22T11:08:43Z</time>
</trkpt>
<trkpt lat="53.1475595" lon="18.1142246">
<ele>96</ele>
<time>2017-08-22T11:08:45Z</time>
</trkpt>
<trkpt lat="53.1475595" lon="18.1142246">
<ele>96</ele>
<time>2017-08-22T11:08:47Z</time>
</trkpt>
<trkpt lat="53.1475595" lon="18.1142246">
<ele>96</ele>
<time>2017-08-22T11:08:49Z</time>
</trkpt>
<trkpt lat="53.1475595" lon="18.1142246">
<ele>96</ele>
<time>2017-08-22T11:08:51Z</time>
</trkpt>
<trkpt lat="53.1475595" lon="18.1142246">
<ele>96</ele>
<time>2017-08-22T11:08:53Z</time>
</trkpt>
<trkpt lat="53.1475595" lon="18.1142246">
<ele>96</ele>
<time>2017-08-22T11:08:55Z</time>
</trkpt>
<trkpt lat="53.1475595" lon="18.1142246">
<ele>96</ele>
<time>2017-08-22T11:08:59Z</time>
</trkpt>
<trkpt lat="53.1475595" lon="18.1142246">
<ele>96</ele>
<time>2017-08-22T11:09:01Z</time>
</trkpt>
<trkpt lat="53.1475595" lon="18.1142246">
<ele>96</ele>
<time>2017-08-22T11:09:03Z</time>
</trkpt>
<trkpt lat="53.1475482" lon="18.1141945">
<ele>95</ele>
<time>2017-08-22T11:09:05Z</time>
</trkpt>
<trkpt lat="53.1475467" lon="18.1141880">
<ele>95</ele>
<time>2017-08-22T11:09:07Z</time>
</trkpt>
<trkpt lat="53.1475467" lon="18.1141880">
<ele>95</ele>
<time>2017-08-22T11:09:09Z</time>
</trkpt>
<trkpt lat="53.1475467" lon="18.1141880">
<ele>95</ele>
<time>2017-08-22T11:09:11Z</time>
</trkpt>
<trkpt lat="53.1475467" lon="18.1141880">
<ele>95</ele>
<time>2017-08-22T11:09:13Z</time>
</trkpt>
<trkpt lat="53.1475467" lon="18.1141880">
<ele>95</ele>
<time>2017-08-22T11:09:15Z</time>
</trkpt>
<trkpt lat="53.1475467" lon="18.1141880">
<ele>95</ele>
<time>2017-08-22T11:09:17Z</time>
</trkpt>
<trkpt lat="53.1475467" lon="18.1141880">
<ele>95</ele>
<time>2017-08-22T11:09:19Z</time>
</trkpt>
<trkpt lat="53.1475467" lon="18.1141880">
<ele>95</ele>
<time>2017-08-22T11:09:21Z</time>
</trkpt>
<trkpt lat="53.1475467" lon="18.1141880">
<ele>95</ele>
<time>2017-08-22T11:09:23Z</time>
</trkpt>
<trkpt lat="53.1475467" lon="18.1141880">
<ele>95</ele>
<time>2017-08-22T11:09:25Z</time>
</trkpt>
<trkpt lat="53.1475467" lon="18.1141880">
<ele>95</ele>
<time>2017-08-22T11:09:27Z</time>
</trkpt>
<trkpt lat="53.1475467" lon="18.1141880">
<ele>95</ele>
<time>2017-08-22T11:09:29Z</time>
</trkpt>
<trkpt lat="53.1475467" lon="18.1141880">
<ele>95</ele>
<time>2017-08-22T11:09:31Z</time>
</trkpt>
<trkpt lat="53.1475467" lon="18.1141880">
<ele>95</ele>
<time>2017-08-22T11:09:33Z</time>
</trkpt>
<trkpt lat="53.1475467" lon="18.1141880">
<ele>95</ele>
<time>2017-08-22T11:09:35Z</time>
</trkpt>
<trkpt lat="53.1475467" lon="18.1141880">
<ele>95</ele>
<time>2017-08-22T11:09:37Z</time>
</trkpt>
<trkpt lat="53.1475467" lon="18.1141880">
<ele>95</ele>
<time>2017-08-22T11:09:39Z</time>
</trkpt>
<trkpt lat="53.1475467" lon="18.1141880">
<ele>95</ele>
<time>2017-08-22T11:09:41Z</time>
</trkpt>
<trkpt lat="53.1475467" lon="18.1141880">
<ele>95</ele>
<time>2017-08-22T11:09:43Z</time>
</trkpt>
<trkpt lat="53.1475467" lon="18.1141880">
<ele>95</ele>
<time>2017-08-22T11:09:45Z</time>
</trkpt>
<trkpt lat="53.1475467" lon="18.1141880">
<ele>95</ele>
<time>2017-08-22T11:09:47Z</time>
</trkpt>
<trkpt lat="53.1475467" lon="18.1141880">
<ele>95</ele>
<time>2017-08-22T11:09:49Z</time>
</trkpt>
<trkpt lat="53.1475467" lon="18.1141880">
<ele>95</ele>
<time>2017-08-22T11:09:51Z</time>
</trkpt>
<trkpt lat="53.1475467" lon="18.1141880">
<ele>95</ele>
<time>2017-08-22T11:09:53Z</time>
</trkpt>
<trkpt lat="53.1475467" lon="18.1141880">
<ele>95</ele>
<time>2017-08-22T11:09:55Z</time>
</trkpt>
<trkpt lat="53.1475467" lon="18.1141880">
<ele>95</ele>
<time>2017-08-22T11:09:57Z</time>
</trkpt>
<trkpt lat="53.1475467" lon="18.1141880">
<ele>95</ele>
<time>2017-08-22T11:09:59Z</time>
</trkpt>
<trkpt lat="53.1475467" lon="18.1141880">
<ele>95</ele>
<time>2017-08-22T11:10:01Z</time>
</trkpt>
<trkpt lat="53.1475467" lon="18.1141880">
<ele>95</ele>
<time>2017-08-22T11:10:03Z</time>
</trkpt>
<trkpt lat="53.1475467" lon="18.1141880">
<ele>95</ele>
<time>2017-08-22T11:10:05Z</time>
</trkpt>
<trkpt lat="53.1475467" lon="18.1141880">
<ele>95</ele>
<time>2017-08-22T11:10:07Z</time>
</trkpt>
<trkpt lat="53.1475467" lon="18.1141880">
<ele>95</ele>
<time>2017-08-22T11:10:09Z</time>
</trkpt>
<trkpt lat="53.1475467" lon="18.1141880">
<ele>95</ele>
<time>2017-08-22T11:10:11Z</time>
</trkpt>
<trkpt lat="53.1475467" lon="18.1141880">
<ele>95</ele>
<time>2017-08-22T11:10:13Z</time>
</trkpt>
<trkpt lat="53.1475467" lon="18.1141880">
<ele>95</ele>
<time>2017-08-22T11:10:15Z</time>
</trkpt>
<trkpt lat="53.1475467" lon="18.1141880">
<ele>95</ele>
<time>2017-08-22T11:10:17Z</time>
</trkpt>
<trkpt lat="53.1475467" lon="18.1141880">
<ele>95</ele>
<time>2017-08-22T11:10:19Z</time>
</trkpt>
<trkpt lat="53.1475467" lon="18.1141880">
<ele>95</ele>
<time>2017-08-22T11:10:21Z</time>
</trkpt>
<trkpt lat="53.1475467" lon="18.1141880">
<ele>95</ele>
<time>2017-08-22T11:10:23Z</time>
</trkpt>
<trkpt lat="53.1475467" lon="18.1141880">
<ele>95</ele>
<time>2017-08-22T11:10:25Z</time>
</trkpt>
<trkpt lat="53.1475467" lon="18.1141880">
<ele>95</ele>
<time>2017-08-22T11:10:27Z</time>
</trkpt>
<trkpt lat="53.1475467" lon="18.1141880">
<ele>95</ele>
<time>2017-08-22T11:10:29Z</time>
</trkpt>
<trkpt lat="53.1475467" lon="18.1141880">
<ele>95</ele>
<time>2017-08-22T11:10:31Z</time>
</trkpt>
<trkpt lat="53.1475467" lon="18.1141880">
<ele>95</ele>
<time>2017-08-22T11:10:33Z</time>
</trkpt>
<trkpt lat="53.1475467" lon="18.1141880">
<ele>95</ele>
<time>2017-08-22T11:10:35Z</time>
</trkpt>
<trkpt lat="53.1475467" lon="18.1141880">
<ele>95</ele>
<time>2017-08-22T11:10:37Z</time>
</trkpt>
<trkpt lat="53.1475467" lon="18.1141880">
<ele>95</ele>
<time>2017-08-22T11:10:39Z</time>
</trkpt>
<trkpt lat="53.1475467" lon="18.1141880">
<ele>95</ele>
<time>2017-08-22T11:10:41Z</time>
</trkpt>
<trkpt lat="53.1475467" lon="18.1141880">
<ele>95</ele>
<time>2017-08-22T11:10:43Z</time>
</trkpt>
<trkpt lat="53.1475467" lon="18.1141880">
<ele>95</ele>
<time>2017-08-22T11:10:45Z</time>
</trkpt>
<trkpt lat="53.1475467" lon="18.1141880">
<ele>95</ele>
<time>2017-08-22T11:10:47Z</time>
</trkpt>
<trkpt lat="53.1475467" lon="18.1141880">
<ele>95</ele>
<time>2017-08-22T11:10:49Z</time>
</trkpt>
<trkpt lat="53.1475467" lon="18.1141880">
<ele>95</ele>
<time>2017-08-22T11:10:51Z</time>
</trkpt>
<trkpt lat="53.1475467" lon="18.1141880">
<ele>95</ele>
<time>2017-08-22T11:10:53Z</time>
</trkpt>
<trkpt lat="53.1475467" lon="18.1141880">
<ele>95</ele>
<time>2017-08-22T11:10:55Z</time>
</trkpt>
<trkpt lat="53.1475467" lon="18.1141880">
<ele>95</ele>
<time>2017-08-22T11:10:57Z</time>
</trkpt>
<trkpt lat="53.1475467" lon="18.1141880">
<ele>95</ele>
<time>2017-08-22T11:10:59Z</time>
</trkpt>
<trkpt lat="53.1475467" lon="18.1141880">
<ele>95</ele>
<time>2017-08-22T11:11:01Z</time>
</trkpt>
<trkpt lat="53.1475467" lon="18.1141880">
<ele>95</ele>
<time>2017-08-22T11:11:03Z</time>
</trkpt>
<trkpt lat="53.1475467" lon="18.1141880">
<ele>95</ele>
<time>2017-08-22T11:11:05Z</time>
</trkpt>
<trkpt lat="53.1475467" lon="18.1141880">
<ele>95</ele>
<time>2017-08-22T11:11:07Z</time>
</trkpt>
<trkpt lat="53.1475467" lon="18.1141880">
<ele>95</ele>
<time>2017-08-22T11:11:09Z</time>
</trkpt>
<trkpt lat="53.1475467" lon="18.1141880">
<ele>95</ele>
<time>2017-08-22T11:11:11Z</time>
</trkpt>
<trkpt lat="53.1475467" lon="18.1141880">
<ele>95</ele>
<time>2017-08-22T11:11:13Z</time>
</trkpt>
<trkpt lat="53.1475467" lon="18.1141880">
<ele>95</ele>
<time>2017-08-22T11:11:15Z</time>
</trkpt>
<trkpt lat="53.1475467" lon="18.1141880">
<ele>95</ele>
<time>2017-08-22T11:11:17Z</time>
</trkpt>
<trkpt lat="53.1475467" lon="18.1141880">
<ele>95</ele>
<time>2017-08-22T11:11:19Z</time>
</trkpt>
<trkpt lat="53.1475467" lon="18.1141880">
<ele>95</ele>
<time>2017-08-22T11:11:21Z</time>
</trkpt>
<trkpt lat="53.1475467" lon="18.1141880">
<ele>95</ele>
<time>2017-08-22T11:11:23Z</time>
</trkpt>
<trkpt lat="53.1475467" lon="18.1141880">
<ele>95</ele>
<time>2017-08-22T11:11:25Z</time>
</trkpt>
<trkpt lat="53.1475467" lon="18.1141880">
<ele>95</ele>
<time>2017-08-22T11:11:27Z</time>
</trkpt>
<trkpt lat="53.1475467" lon="18.1141880">
<ele>95</ele>
<time>2017-08-22T11:11:29Z</time>
</trkpt>
<trkpt lat="53.1475467" lon="18.1141880">
<ele>95</ele>
<time>2017-08-22T11:11:31Z</time>
</trkpt>
<trkpt lat="53.1475467" lon="18.1141880">
<ele>95</ele>
<time>2017-08-22T11:11:33Z</time>
</trkpt>
<trkpt lat="53.1475467" lon="18.1141880">
<ele>95</ele>
<time>2017-08-22T11:11:35Z</time>
</trkpt>
<trkpt lat="53.1475467" lon="18.1141880">
<ele>95</ele>
<time>2017-08-22T11:11:37Z</time>
</trkpt>
<trkpt lat="53.1475467" lon="18.1141880">
<ele>95</ele>
<time>2017-08-22T11:11:39Z</time>
</trkpt>
<trkpt lat="53.1475467" lon="18.1141880">
<ele>95</ele>
<time>2017-08-22T11:11:41Z</time>
</trkpt>
<trkpt lat="53.1475467" lon="18.1141880">
<ele>95</ele>
<time>2017-08-22T11:11:43Z</time>
</trkpt>
<trkpt lat="53.1475467" lon="18.1141880">
<ele>95</ele>
<time>2017-08-22T11:11:45Z</time>
</trkpt>
<trkpt lat="53.1475467" lon="18.1141880">
<ele>95</ele>
<time>2017-08-22T11:11:47Z</time>
</trkpt>
<trkpt lat="53.1475467" lon="18.1141880">
<ele>95</ele>
<time>2017-08-22T11:11:49Z</time>
</trkpt>
<trkpt lat="53.1475467" lon="18.1141880">
<ele>95</ele>
<time>2017-08-22T11:11:51Z</time>
</trkpt>
<trkpt lat="53.1475467" lon="18.1141880">
<ele>95</ele>
<time>2017-08-22T11:11:53Z</time>
</trkpt>
<trkpt lat="53.1475467" lon="18.1141880">
<ele>95</ele>
<time>2017-08-22T11:11:55Z</time>
</trkpt>
<trkpt lat="53.1475467" lon="18.1141880">
<ele>95</ele>
<time>2017-08-22T11:11:57Z</time>
</trkpt>
<trkpt lat="53.1475467" lon="18.1141880">
<ele>95</ele>
<time>2017-08-22T11:11:59Z</time>
</trkpt>
<trkpt lat="53.1475467" lon="18.1141880">
<ele>95</ele>
<time>2017-08-22T11:12:01Z</time>
</trkpt>
<trkpt lat="53.1475467" lon="18.1141880">
<ele>95</ele>
<time>2017-08-22T11:12:03Z</time>
</trkpt>
<trkpt lat="53.1475467" lon="18.1141880">
<ele>95</ele>
<time>2017-08-22T11:12:05Z</time>
</trkpt>
<trkpt lat="53.1475467" lon="18.1141880">
<ele>95</ele>
<time>2017-08-22T11:12:07Z</time>
</trkpt>
<trkpt lat="53.1475467" lon="18.1141880">
<ele>95</ele>
<time>2017-08-22T11:12:09Z</time>
</trkpt>
<trkpt lat="53.1475467" lon="18.1141880">
<ele>95</ele>
<time>2017-08-22T11:12:11Z</time>
</trkpt>
<trkpt lat="53.1475467" lon="18.1141880">
<ele>95</ele>
<time>2017-08-22T11:12:13Z</time>
</trkpt>
<trkpt lat="53.1475467" lon="18.1141880">
<ele>95</ele>
<time>2017-08-22T11:12:15Z</time>
</trkpt>
<trkpt lat="53.1475467" lon="18.1141880">
<ele>95</ele>
<time>2017-08-22T11:12:17Z</time>
</trkpt>
<trkpt lat="53.1475467" lon="18.1141880">
<ele>95</ele>
<time>2017-08-22T11:12:19Z</time>
</trkpt>
<trkpt lat="53.1475467" lon="18.1141880">
<ele>95</ele>
<time>2017-08-22T11:12:21Z</time>
</trkpt>
<trkpt lat="53.1475467" lon="18.1141880">
<ele>95</ele>
<time>2017-08-22T11:12:23Z</time>
</trkpt>
<trkpt lat="53.1475467" lon="18.1141880">
<ele>95</ele>
<time>2017-08-22T11:12:25Z</time>
</trkpt>
<trkpt lat="53.1475467" lon="18.1141880">
<ele>95</ele>
<time>2017-08-22T11:12:27Z</time>
</trkpt>
<trkpt lat="53.1475467" lon="18.1141880">
<ele>95</ele>
<time>2017-08-22T11:12:29Z</time>
</trkpt>
<trkpt lat="53.1475467" lon="18.1141880">
<ele>95</ele>
<time>2017-08-22T11:12:31Z</time>
</trkpt>
<trkpt lat="53.1475467" lon="18.1141880">
<ele>95</ele>
<time>2017-08-22T11:12:33Z</time>
</trkpt>
<trkpt lat="53.1475467" lon="18.1141880">
<ele>95</ele>
<time>2017-08-22T11:12:35Z</time>
</trkpt>
<trkpt lat="53.1475467" lon="18.1141880">
<ele>95</ele>
<time>2017-08-22T11:12:37Z</time>
</trkpt>
<trkpt lat="53.1475467" lon="18.1141880">
<ele>95</ele>
<time>2017-08-22T11:12:39Z</time>
</trkpt>
<trkpt lat="53.1475467" lon="18.1141880">
<ele>95</ele>
<time>2017-08-22T11:12:41Z</time>
</trkpt>
<trkpt lat="53.1475467" lon="18.1141880">
<ele>95</ele>
<time>2017-08-22T11:12:43Z</time>
</trkpt>
<trkpt lat="53.1475467" lon="18.1141880">
<ele>95</ele>
<time>2017-08-22T11:12:45Z</time>
</trkpt>
<trkpt lat="53.1475467" lon="18.1141880">
<ele>95</ele>
<time>2017-08-22T11:12:47Z</time>
</trkpt>
<trkpt lat="53.1475467" lon="18.1141880">
<ele>95</ele>
<time>2017-08-22T11:12:49Z</time>
</trkpt>
<trkpt lat="53.1475467" lon="18.1141880">
<ele>95</ele>
<time>2017-08-22T11:12:51Z</time>
</trkpt>
<trkpt lat="53.1475467" lon="18.1141880">
<ele>95</ele>
<time>2017-08-22T11:12:53Z</time>
</trkpt>
<trkpt lat="53.1475467" lon="18.1141880">
<ele>95</ele>
<time>2017-08-22T11:12:55Z</time>
</trkpt>
<trkpt lat="53.1475467" lon="18.1141880">
<ele>95</ele>
<time>2017-08-22T11:12:57Z</time>
</trkpt>
<trkpt lat="53.1475467" lon="18.1141880">
<ele>95</ele>
<time>2017-08-22T11:12:59Z</time>
</trkpt>
<trkpt lat="53.1475467" lon="18.1141880">
<ele>95</ele>
<time>2017-08-22T11:13:01Z</time>
</trkpt>
<trkpt lat="53.1475467" lon="18.1141880">
<ele>95</ele>
<time>2017-08-22T11:13:03Z</time>
</trkpt>
<trkpt lat="53.1475467" lon="18.1141880">
<ele>95</ele>
<time>2017-08-22T11:13:05Z</time>
</trkpt>
<trkpt lat="53.1475467" lon="18.1141880">
<ele>95</ele>
<time>2017-08-22T11:13:07Z</time>
</trkpt>
<trkpt lat="53.1475467" lon="18.1141880">
<ele>95</ele>
<time>2017-08-22T11:13:09Z</time>
</trkpt>
<trkpt lat="53.1475467" lon="18.1141880">
<ele>95</ele>
<time>2017-08-22T11:13:11Z</time>
</trkpt>
<trkpt lat="53.1475467" lon="18.1141880">
<ele>95</ele>
<time>2017-08-22T11:13:13Z</time>
</trkpt>
<trkpt lat="53.1475467" lon="18.1141880">
<ele>95</ele>
<time>2017-08-22T11:13:15Z</time>
</trkpt>
<trkpt lat="53.1475467" lon="18.1141880">
<ele>95</ele>
<time>2017-08-22T11:13:17Z</time>
</trkpt>
<trkpt lat="53.1475467" lon="18.1141880">
<ele>95</ele>
<time>2017-08-22T11:13:19Z</time>
</trkpt>
<trkpt lat="53.1475467" lon="18.1141880">
<ele>95</ele>
<time>2017-08-22T11:13:21Z</time>
</trkpt>
<trkpt lat="53.1475467" lon="18.1141880">
<ele>95</ele>
<time>2017-08-22T11:13:23Z</time>
</trkpt>
<trkpt lat="53.1475467" lon="18.1141880">
<ele>95</ele>
<time>2017-08-22T11:13:25Z</time>
</trkpt>
<trkpt lat="53.1475467" lon="18.1141880">
<ele>95</ele>
<time>2017-08-22T11:13:27Z</time>
</trkpt>
<trkpt lat="53.1475467" lon="18.1141880">
<ele>95</ele>
<time>2017-08-22T11:13:29Z</time>
</trkpt>
<trkpt lat="53.1475467" lon="18.1141880">
<ele>95</ele>
<time>2017-08-22T11:13:31Z</time>
</trkpt>
<trkpt lat="53.1475467" lon="18.1141880">
<ele>95</ele>
<time>2017-08-22T11:13:33Z</time>
</trkpt>
<trkpt lat="53.1475467" lon="18.1141880">
<ele>95</ele>
<time>2017-08-22T11:13:35Z</time>
</trkpt>
<trkpt lat="53.1475467" lon="18.1141880">
<ele>95</ele>
<time>2017-08-22T11:13:37Z</time>
</trkpt>
<trkpt lat="53.1475467" lon="18.1141880">
<ele>95</ele>
<time>2017-08-22T11:13:39Z</time>
</trkpt>
<trkpt lat="53.1475467" lon="18.1141880">
<ele>95</ele>
<time>2017-08-22T11:13:41Z</time>
</trkpt>
<trkpt lat="53.1475467" lon="18.1141880">
<ele>95</ele>
<time>2017-08-22T11:13:43Z</time>
</trkpt>
<trkpt lat="53.1475467" lon="18.1141880">
<ele>95</ele>
<time>2017-08-22T11:13:45Z</time>
</trkpt>
<trkpt lat="53.1475467" lon="18.1141880">
<ele>95</ele>
<time>2017-08-22T11:13:47Z</time>
</trkpt>
<trkpt lat="53.1475467" lon="18.1141880">
<ele>95</ele>
<time>2017-08-22T11:13:49Z</time>
</trkpt>
<trkpt lat="53.1475467" lon="18.1141880">
<ele>95</ele>
<time>2017-08-22T11:13:51Z</time>
</trkpt>
<trkpt lat="53.1475467" lon="18.1141880">
<ele>95</ele>
<time>2017-08-22T11:13:53Z</time>
</trkpt>
<trkpt lat="53.1475467" lon="18.1141880">
<ele>95</ele>
<time>2017-08-22T11:13:55Z</time>
</trkpt>
<trkpt lat="53.1475467" lon="18.1141880">
<ele>95</ele>
<time>2017-08-22T11:13:57Z</time>
</trkpt>
<trkpt lat="53.1475467" lon="18.1141880">
<ele>95</ele>
<time>2017-08-22T11:13:59Z</time>
</trkpt>
<trkpt lat="53.1475467" lon="18.1141880">
<ele>95</ele>
<time>2017-08-22T11:14:01Z</time>
</trkpt>
<trkpt lat="53.1475467" lon="18.1141880">
<ele>95</ele>
<time>2017-08-22T11:14:03Z</time>
</trkpt>
<trkpt lat="53.1475467" lon="18.1141880">
<ele>95</ele>
<time>2017-08-22T11:14:05Z</time>
</trkpt>
<trkpt lat="53.1475467" lon="18.1141880">
<ele>95</ele>
<time>2017-08-22T11:14:07Z</time>
</trkpt>
<trkpt lat="53.1475467" lon="18.1141880">
<ele>95</ele>
<time>2017-08-22T11:14:09Z</time>
</trkpt>
<trkpt lat="53.1475467" lon="18.1141880">
<ele>95</ele>
<time>2017-08-22T11:14:11Z</time>
</trkpt>
<trkpt lat="53.1475467" lon="18.1141880">
<ele>95</ele>
<time>2017-08-22T11:14:13Z</time>
</trkpt>
<trkpt lat="53.1475467" lon="18.1141880">
<ele>95</ele>
<time>2017-08-22T11:14:15Z</time>
</trkpt>
<trkpt lat="53.1475467" lon="18.1141880">
<ele>95</ele>
<time>2017-08-22T11:14:17Z</time>
</trkpt>
<trkpt lat="53.1475467" lon="18.1141880">
<ele>95</ele>
<time>2017-08-22T11:14:19Z</time>
</trkpt>
<trkpt lat="53.1475467" lon="18.1141880">
<ele>95</ele>
<time>2017-08-22T11:14:21Z</time>
</trkpt>
<trkpt lat="53.1475467" lon="18.1141880">
<ele>95</ele>
<time>2017-08-22T11:14:23Z</time>
</trkpt>
<trkpt lat="53.1475467" lon="18.1141880">
<ele>95</ele>
<time>2017-08-22T11:14:25Z</time>
</trkpt>
<trkpt lat="53.1475467" lon="18.1141880">
<ele>95</ele>
<time>2017-08-22T11:14:27Z</time>
</trkpt>
<trkpt lat="53.1475467" lon="18.1141880">
<ele>95</ele>
<time>2017-08-22T11:14:29Z</time>
</trkpt>
<trkpt lat="53.1475467" lon="18.1141880">
<ele>95</ele>
<time>2017-08-22T11:14:31Z</time>
</trkpt>
<trkpt lat="53.1475467" lon="18.1141880">
<ele>95</ele>
<time>2017-08-22T11:14:33Z</time>
</trkpt>
<trkpt lat="53.1475467" lon="18.1141880">
<ele>95</ele>
<time>2017-08-22T11:14:35Z</time>
</trkpt>
<trkpt lat="53.1475467" lon="18.1141880">
<ele>95</ele>
<time>2017-08-22T11:14:37Z</time>
</trkpt>
<trkpt lat="53.1475467" lon="18.1141880">
<ele>95</ele>
<time>2017-08-22T11:14:39Z</time>
</trkpt>
<trkpt lat="53.1475467" lon="18.1141880">
<ele>95</ele>
<time>2017-08-22T11:14:41Z</time>
</trkpt>
<trkpt lat="53.1475467" lon="18.1141880">
<ele>95</ele>
<time>2017-08-22T11:14:43Z</time>
</trkpt>
<trkpt lat="53.1475467" lon="18.1141880">
<ele>95</ele>
<time>2017-08-22T11:14:45Z</time>
</trkpt>
<trkpt lat="53.1475467" lon="18.1141880">
<ele>95</ele>
<time>2017-08-22T11:14:47Z</time>
</trkpt>
<trkpt lat="53.1475467" lon="18.1141880">
<ele>95</ele>
<time>2017-08-22T11:14:49Z</time>
</trkpt>
<trkpt lat="53.1475467" lon="18.1141880">
<ele>95</ele>
<time>2017-08-22T11:14:51Z</time>
</trkpt>
<trkpt lat="53.1475467" lon="18.1141880">
<ele>95</ele>
<time>2017-08-22T11:14:53Z</time>
</trkpt>
<trkpt lat="53.1475467" lon="18.1141880">
<ele>95</ele>
<time>2017-08-22T11:14:55Z</time>
</trkpt>
<trkpt lat="53.1475467" lon="18.1141880">
<ele>95</ele>
<time>2017-08-22T11:14:57Z</time>
</trkpt>
<trkpt lat="53.1475467" lon="18.1141880">
<ele>95</ele>
<time>2017-08-22T11:14:59Z</time>
</trkpt>
<trkpt lat="53.1475467" lon="18.1141880">
<ele>95</ele>
<time>2017-08-22T11:15:01Z</time>
</trkpt>
<trkpt lat="53.1475467" lon="18.1141880">
<ele>95</ele>
<time>2017-08-22T11:15:03Z</time>
</trkpt>
<trkpt lat="53.1475467" lon="18.1141880">
<ele>95</ele>
<time>2017-08-22T11:15:05Z</time>
</trkpt>
<trkpt lat="53.1475467" lon="18.1141880">
<ele>95</ele>
<time>2017-08-22T11:15:07Z</time>
</trkpt>
<trkpt lat="53.1475467" lon="18.1141880">
<ele>95</ele>
<time>2017-08-22T11:15:09Z</time>
</trkpt>
<trkpt lat="53.1475467" lon="18.1141880">
<ele>95</ele>
<time>2017-08-22T11:15:11Z</time>
</trkpt>
<trkpt lat="53.1475467" lon="18.1141880">
<ele>95</ele>
<time>2017-08-22T11:15:13Z</time>
</trkpt>
<trkpt lat="53.1475467" lon="18.1141880">
<ele>95</ele>
<time>2017-08-22T11:15:15Z</time>
</trkpt>
<trkpt lat="53.1475467" lon="18.1141880">
<ele>95</ele>
<time>2017-08-22T11:15:17Z</time>
</trkpt>
<trkpt lat="53.1475467" lon="18.1141880">
<ele>95</ele>
<time>2017-08-22T11:15:19Z</time>
</trkpt>
<trkpt lat="53.1475467" lon="18.1141880">
<ele>95</ele>
<time>2017-08-22T11:15:21Z</time>
</trkpt>
<trkpt lat="53.1475467" lon="18.1141880">
<ele>95</ele>
<time>2017-08-22T11:15:23Z</time>
</trkpt>
<trkpt lat="53.1475467" lon="18.1141880">
<ele>95</ele>
<time>2017-08-22T11:15:25Z</time>
</trkpt>
<trkpt lat="53.1475467" lon="18.1141880">
<ele>95</ele>
<time>2017-08-22T11:15:27Z</time>
</trkpt>
<trkpt lat="53.1475467" lon="18.1141880">
<ele>95</ele>
<time>2017-08-22T11:15:29Z</time>
</trkpt>
<trkpt lat="53.1475467" lon="18.1141880">
<ele>95</ele>
<time>2017-08-22T11:15:31Z</time>
</trkpt>
<trkpt lat="53.1475467" lon="18.1141880">
<ele>95</ele>
<time>2017-08-22T11:15:33Z</time>
</trkpt>
<trkpt lat="53.1475467" lon="18.1141880">
<ele>95</ele>
<time>2017-08-22T11:15:35Z</time>
</trkpt>
<trkpt lat="53.1475467" lon="18.1141880">
<ele>95</ele>
<time>2017-08-22T11:15:37Z</time>
</trkpt>
<trkpt lat="53.1475467" lon="18.1141880">
<ele>95</ele>
<time>2017-08-22T11:15:39Z</time>
</trkpt>
<trkpt lat="53.1475467" lon="18.1141880">
<ele>95</ele>
<time>2017-08-22T11:15:41Z</time>
</trkpt>
<trkpt lat="53.1475467" lon="18.1141880">
<ele>95</ele>
<time>2017-08-22T11:15:43Z</time>
</trkpt>
<trkpt lat="53.1475467" lon="18.1141880">
<ele>95</ele>
<time>2017-08-22T11:15:45Z</time>
</trkpt>
<trkpt lat="53.1475467" lon="18.1141880">
<ele>95</ele>
<time>2017-08-22T11:15:47Z</time>
</trkpt>
<trkpt lat="53.1475467" lon="18.1141880">
<ele>95</ele>
<time>2017-08-22T11:15:49Z</time>
</trkpt>
<trkpt lat="53.1475467" lon="18.1141880">
<ele>95</ele>
<time>2017-08-22T11:15:51Z</time>
</trkpt>
<trkpt lat="53.1475467" lon="18.1141880">
<ele>95</ele>
<time>2017-08-22T11:15:53Z</time>
</trkpt>
<trkpt lat="53.1475467" lon="18.1141880">
<ele>95</ele>
<time>2017-08-22T11:15:55Z</time>
</trkpt>
<trkpt lat="53.1475467" lon="18.1141880">
<ele>95</ele>
<time>2017-08-22T11:15:57Z</time>
</trkpt>
<trkpt lat="53.1475467" lon="18.1141880">
<ele>95</ele>
<time>2017-08-22T11:15:59Z</time>
</trkpt>
<trkpt lat="53.1475467" lon="18.1141880">
<ele>95</ele>
<time>2017-08-22T11:16:01Z</time>
</trkpt>
<trkpt lat="53.1475467" lon="18.1141880">
<ele>95</ele>
<time>2017-08-22T11:16:03Z</time>
</trkpt>
<trkpt lat="53.1475467" lon="18.1141880">
<ele>95</ele>
<time>2017-08-22T11:16:05Z</time>
</trkpt>
<trkpt lat="53.1475467" lon="18.1141880">
<ele>95</ele>
<time>2017-08-22T11:16:07Z</time>
</trkpt>
<trkpt lat="53.1475467" lon="18.1141880">
<ele>95</ele>
<time>2017-08-22T11:16:09Z</time>
</trkpt>
<trkpt lat="53.1475467" lon="18.1141880">
<ele>95</ele>
<time>2017-08-22T11:16:11Z</time>
</trkpt>
<trkpt lat="53.1475467" lon="18.1141880">
<ele>95</ele>
<time>2017-08-22T11:16:13Z</time>
</trkpt>
<trkpt lat="53.1475467" lon="18.1141880">
<ele>95</ele>
<time>2017-08-22T11:16:15Z</time>
</trkpt>
<trkpt lat="53.1475467" lon="18.1141880">
<ele>95</ele>
<time>2017-08-22T11:16:17Z</time>
</trkpt>
<trkpt lat="53.1475467" lon="18.1141880">
<ele>95</ele>
<time>2017-08-22T11:16:19Z</time>
</trkpt>
<trkpt lat="53.1475467" lon="18.1141880">
<ele>95</ele>
<time>2017-08-22T11:16:21Z</time>
</trkpt>
<trkpt lat="53.1475467" lon="18.1141880">
<ele>95</ele>
<time>2017-08-22T11:16:23Z</time>
</trkpt>
<trkpt lat="53.1475467" lon="18.1141880">
<ele>95</ele>
<time>2017-08-22T11:16:25Z</time>
</trkpt>
<trkpt lat="53.1475467" lon="18.1141880">
<ele>95</ele>
<time>2017-08-22T11:16:27Z</time>
</trkpt>
<trkpt lat="53.1475467" lon="18.1141880">
<ele>95</ele>
<time>2017-08-22T11:16:29Z</time>
</trkpt>
<trkpt lat="53.1475467" lon="18.1141880">
<ele>95</ele>
<time>2017-08-22T11:16:31Z</time>
</trkpt>
<trkpt lat="53.1475467" lon="18.1141880">
<ele>95</ele>
<time>2017-08-22T11:16:33Z</time>
</trkpt>
<trkpt lat="53.1475467" lon="18.1141880">
<ele>95</ele>
<time>2017-08-22T11:16:35Z</time>
</trkpt>
<trkpt lat="53.1475467" lon="18.1141880">
<ele>95</ele>
<time>2017-08-22T11:16:37Z</time>
</trkpt>
<trkpt lat="53.1475467" lon="18.1141880">
<ele>95</ele>
<time>2017-08-22T11:16:39Z</time>
</trkpt>
<trkpt lat="53.1475467" lon="18.1141880">
<ele>95</ele>
<time>2017-08-22T11:16:41Z</time>
</trkpt>
<trkpt lat="53.1475467" lon="18.1141880">
<ele>95</ele>
<time>2017-08-22T11:16:43Z</time>
</trkpt>
<trkpt lat="53.1475467" lon="18.1141880">
<ele>95</ele>
<time>2017-08-22T11:16:45Z</time>
</trkpt>
<trkpt lat="53.1475467" lon="18.1141880">
<ele>95</ele>
<time>2017-08-22T11:16:47Z</time>
</trkpt>
<trkpt lat="53.1475467" lon="18.1141880">
<ele>95</ele>
<time>2017-08-22T11:16:49Z</time>
</trkpt>
<trkpt lat="53.1475467" lon="18.1141880">
<ele>95</ele>
<time>2017-08-22T11:16:51Z</time>
</trkpt>
<trkpt lat="53.1475467" lon="18.1141880">
<ele>95</ele>
<time>2017-08-22T11:16:53Z</time>
</trkpt>
<trkpt lat="53.1475467" lon="18.1141880">
<ele>95</ele>
<time>2017-08-22T11:16:55Z</time>
</trkpt>
<trkpt lat="53.1475467" lon="18.1141880">
<ele>95</ele>
<time>2017-08-22T11:16:57Z</time>
</trkpt>
<trkpt lat="53.1475467" lon="18.1141880">
<ele>95</ele>
<time>2017-08-22T11:16:59Z</time>
</trkpt>
<trkpt lat="53.1475467" lon="18.1141880">
<ele>95</ele>
<time>2017-08-22T11:17:01Z</time>
</trkpt>
<trkpt lat="53.1475467" lon="18.1141880">
<ele>95</ele>
<time>2017-08-22T11:17:03Z</time>
</trkpt>
<trkpt lat="53.1475467" lon="18.1141880">
<ele>95</ele>
<time>2017-08-22T11:17:05Z</time>
</trkpt>
<trkpt lat="53.1475467" lon="18.1141880">
<ele>95</ele>
<time>2017-08-22T11:17:07Z</time>
</trkpt>
<trkpt lat="53.1475467" lon="18.1141880">
<ele>95</ele>
<time>2017-08-22T11:17:09Z</time>
</trkpt>
<trkpt lat="53.1475467" lon="18.1141880">
<ele>95</ele>
<time>2017-08-22T11:17:11Z</time>
</trkpt>
<trkpt lat="53.1475467" lon="18.1141880">
<ele>95</ele>
<time>2017-08-22T11:17:13Z</time>
</trkpt>
<trkpt lat="53.1475467" lon="18.1141880">
<ele>95</ele>
<time>2017-08-22T11:17:15Z</time>
</trkpt>
<trkpt lat="53.1475467" lon="18.1141880">
<ele>95</ele>
<time>2017-08-22T11:17:17Z</time>
</trkpt>
<trkpt lat="53.1475467" lon="18.1141880">
<ele>95</ele>
<time>2017-08-22T11:17:19Z</time>
</trkpt>
<trkpt lat="53.1475467" lon="18.1141880">
<ele>95</ele>
<time>2017-08-22T11:17:21Z</time>
</trkpt>
<trkpt lat="53.1475467" lon="18.1141880">
<ele>95</ele>
<time>2017-08-22T11:17:23Z</time>
</trkpt>
<trkpt lat="53.1475467" lon="18.1141880">
<ele>95</ele>
<time>2017-08-22T11:17:25Z</time>
</trkpt>
<trkpt lat="53.1475467" lon="18.1141880">
<ele>95</ele>
<time>2017-08-22T11:17:27Z</time>
</trkpt>
<trkpt lat="53.1475467" lon="18.1141880">
<ele>95</ele>
<time>2017-08-22T11:17:29Z</time>
</trkpt>
<trkpt lat="53.1475467" lon="18.1141880">
<ele>95</ele>
<time>2017-08-22T11:17:31Z</time>
</trkpt>
<trkpt lat="53.1475467" lon="18.1141880">
<ele>95</ele>
<time>2017-08-22T11:17:33Z</time>
</trkpt>
<trkpt lat="53.1475467" lon="18.1141880">
<ele>95</ele>
<time>2017-08-22T11:17:35Z</time>
</trkpt>
<trkpt lat="53.1475467" lon="18.1141880">
<ele>95</ele>
<time>2017-08-22T11:17:37Z</time>
</trkpt>
<trkpt lat="53.1475467" lon="18.1141880">
<ele>95</ele>
<time>2017-08-22T11:17:39Z</time>
</trkpt>
<trkpt lat="53.1475467" lon="18.1141880">
<ele>95</ele>
<time>2017-08-22T11:17:41Z</time>
</trkpt>
<trkpt lat="53.1475467" lon="18.1141880">
<ele>95</ele>
<time>2017-08-22T11:17:43Z</time>
</trkpt>
<trkpt lat="53.1475467" lon="18.1141880">
<ele>95</ele>
<time>2017-08-22T11:17:45Z</time>
</trkpt>
<trkpt lat="53.1475467" lon="18.1141880">
<ele>95</ele>
<time>2017-08-22T11:17:47Z</time>
</trkpt>
<trkpt lat="53.1475467" lon="18.1141880">
<ele>95</ele>
<time>2017-08-22T11:17:49Z</time>
</trkpt>
<trkpt lat="53.1475467" lon="18.1141880">
<ele>95</ele>
<time>2017-08-22T11:17:51Z</time>
</trkpt>
<trkpt lat="53.1475467" lon="18.1141880">
<ele>95</ele>
<time>2017-08-22T11:17:53Z</time>
</trkpt>
<trkpt lat="53.1475467" lon="18.1141880">
<ele>95</ele>
<time>2017-08-22T11:17:55Z</time>
</trkpt>
<trkpt lat="53.1475467" lon="18.1141880">
<ele>95</ele>
<time>2017-08-22T11:17:57Z</time>
</trkpt>
<trkpt lat="53.1475467" lon="18.1141880">
<ele>95</ele>
<time>2017-08-22T11:17:59Z</time>
</trkpt>
<trkpt lat="53.1475467" lon="18.1141880">
<ele>95</ele>
<time>2017-08-22T11:18:01Z</time>
</trkpt>
<trkpt lat="53.1475467" lon="18.1141880">
<ele>95</ele>
<time>2017-08-22T11:18:03Z</time>
</trkpt>
<trkpt lat="53.1475467" lon="18.1141880">
<ele>95</ele>
<time>2017-08-22T11:18:05Z</time>
</trkpt>
<trkpt lat="53.1475467" lon="18.1141880">
<ele>95</ele>
<time>2017-08-22T11:18:07Z</time>
</trkpt>
<trkpt lat="53.1475467" lon="18.1141880">
<ele>95</ele>
<time>2017-08-22T11:18:09Z</time>
</trkpt>
<trkpt lat="53.1475467" lon="18.1141880">
<ele>95</ele>
<time>2017-08-22T11:18:11Z</time>
</trkpt>
<trkpt lat="53.1475467" lon="18.1141880">
<ele>95</ele>
<time>2017-08-22T11:18:13Z</time>
</trkpt>
<trkpt lat="53.1475467" lon="18.1141880">
<ele>95</ele>
<time>2017-08-22T11:18:15Z</time>
</trkpt>
<trkpt lat="53.1475467" lon="18.1141880">
<ele>95</ele>
<time>2017-08-22T11:18:17Z</time>
</trkpt>
<trkpt lat="53.1475467" lon="18.1141880">
<ele>95</ele>
<time>2017-08-22T11:18:19Z</time>
</trkpt>
<trkpt lat="53.1475467" lon="18.1141880">
<ele>95</ele>
<time>2017-08-22T11:18:21Z</time>
</trkpt>
<trkpt lat="53.1475467" lon="18.1141880">
<ele>95</ele>
<time>2017-08-22T11:18:23Z</time>
</trkpt>
<trkpt lat="53.1475467" lon="18.1141880">
<ele>95</ele>
<time>2017-08-22T11:18:25Z</time>
</trkpt>
<trkpt lat="53.1475467" lon="18.1141880">
<ele>95</ele>
<time>2017-08-22T11:18:27Z</time>
</trkpt>
<trkpt lat="53.1475467" lon="18.1141880">
<ele>95</ele>
<time>2017-08-22T11:18:29Z</time>
</trkpt>
<trkpt lat="53.1475467" lon="18.1141880">
<ele>95</ele>
<time>2017-08-22T11:18:31Z</time>
</trkpt>
<trkpt lat="53.1475467" lon="18.1141880">
<ele>95</ele>
<time>2017-08-22T11:18:33Z</time>
</trkpt>
<trkpt lat="53.1475467" lon="18.1141880">
<ele>95</ele>
<time>2017-08-22T11:18:35Z</time>
</trkpt>
<trkpt lat="53.1475467" lon="18.1141880">
<ele>95</ele>
<time>2017-08-22T11:18:37Z</time>
</trkpt>
<trkpt lat="53.1475467" lon="18.1141880">
<ele>95</ele>
<time>2017-08-22T11:18:39Z</time>
</trkpt>
<trkpt lat="53.1475467" lon="18.1141880">
<ele>95</ele>
<time>2017-08-22T11:18:41Z</time>
</trkpt>
<trkpt lat="53.1475467" lon="18.1141880">
<ele>95</ele>
<time>2017-08-22T11:18:43Z</time>
</trkpt>
<trkpt lat="53.1475467" lon="18.1141880">
<ele>95</ele>
<time>2017-08-22T11:18:45Z</time>
</trkpt>
<trkpt lat="53.1475467" lon="18.1141880">
<ele>95</ele>
<time>2017-08-22T11:18:47Z</time>
</trkpt>
<trkpt lat="53.1475467" lon="18.1141880">
<ele>95</ele>
<time>2017-08-22T11:18:49Z</time>
</trkpt>
<trkpt lat="53.1475467" lon="18.1141880">
<ele>95</ele>
<time>2017-08-22T11:18:51Z</time>
</trkpt>
<trkpt lat="53.1475467" lon="18.1141880">
<ele>95</ele>
<time>2017-08-22T11:18:53Z</time>
</trkpt>
<trkpt lat="53.1475467" lon="18.1141880">
<ele>95</ele>
<time>2017-08-22T11:18:55Z</time>
</trkpt>
<trkpt lat="53.1475467" lon="18.1141880">
<ele>95</ele>
<time>2017-08-22T11:18:57Z</time>
</trkpt>
<trkpt lat="53.1475467" lon="18.1141880">
<ele>95</ele>
<time>2017-08-22T11:18:59Z</time>
</trkpt>
<trkpt lat="53.1475467" lon="18.1141880">
<ele>95</ele>
<time>2017-08-22T11:19:01Z</time>
</trkpt>
<trkpt lat="53.1475467" lon="18.1141880">
<ele>95</ele>
<time>2017-08-22T11:19:03Z</time>
</trkpt>
<trkpt lat="53.1475467" lon="18.1141880">
<ele>95</ele>
<time>2017-08-22T11:19:05Z</time>
</trkpt>
<trkpt lat="53.1475467" lon="18.1141880">
<ele>95</ele>
<time>2017-08-22T11:19:07Z</time>
</trkpt>
<trkpt lat="53.1475467" lon="18.1141880">
<ele>95</ele>
<time>2017-08-22T11:19:09Z</time>
</trkpt>
<trkpt lat="53.1475467" lon="18.1141880">
<ele>95</ele>
<time>2017-08-22T11:19:11Z</time>
</trkpt>
<trkpt lat="53.1475467" lon="18.1141880">
<ele>95</ele>
<time>2017-08-22T11:19:13Z</time>
</trkpt>
<trkpt lat="53.1475467" lon="18.1141880">
<ele>95</ele>
<time>2017-08-22T11:19:15Z</time>
</trkpt>
<trkpt lat="53.1475467" lon="18.1141880">
<ele>95</ele>
<time>2017-08-22T11:19:17Z</time>
</trkpt>
<trkpt lat="53.1475467" lon="18.1141880">
<ele>95</ele>
<time>2017-08-22T11:19:19Z</time>
</trkpt>
<trkpt lat="53.1475467" lon="18.1141880">
<ele>95</ele>
<time>2017-08-22T11:19:21Z</time>
</trkpt>
<trkpt lat="53.1475467" lon="18.1141880">
<ele>95</ele>
<time>2017-08-22T11:19:23Z</time>
</trkpt>
<trkpt lat="53.1475467" lon="18.1141880">
<ele>95</ele>
<time>2017-08-22T11:19:25Z</time>
</trkpt>
<trkpt lat="53.1475467" lon="18.1141880">
<ele>95</ele>
<time>2017-08-22T11:19:27Z</time>
</trkpt>
<trkpt lat="53.1475467" lon="18.1141880">
<ele>95</ele>
<time>2017-08-22T11:19:29Z</time>
</trkpt>
<trkpt lat="53.1475467" lon="18.1141880">
<ele>95</ele>
<time>2017-08-22T11:19:31Z</time>
</trkpt>
<trkpt lat="53.1475467" lon="18.1141880">
<ele>95</ele>
<time>2017-08-22T11:19:33Z</time>
</trkpt>
<trkpt lat="53.1475467" lon="18.1141880">
<ele>95</ele>
<time>2017-08-22T11:19:35Z</time>
</trkpt>
<trkpt lat="53.1475467" lon="18.1141880">
<ele>95</ele>
<time>2017-08-22T11:19:37Z</time>
</trkpt>
<trkpt lat="53.1475467" lon="18.1141880">
<ele>95</ele>
<time>2017-08-22T11:19:39Z</time>
</trkpt>
<trkpt lat="53.1475467" lon="18.1141880">
<ele>95</ele>
<time>2017-08-22T11:19:41Z</time>
</trkpt>
<trkpt lat="53.1475467" lon="18.1141880">
<ele>95</ele>
<time>2017-08-22T11:19:43Z</time>
</trkpt>
<trkpt lat="53.1475467" lon="18.1141880">
<ele>95</ele>
<time>2017-08-22T11:19:45Z</time>
</trkpt>
<trkpt lat="53.1475467" lon="18.1141880">
<ele>95</ele>
<time>2017-08-22T11:19:47Z</time>
</trkpt>
<trkpt lat="53.1475467" lon="18.1141880">
<ele>95</ele>
<time>2017-08-22T11:19:48Z</time>
</trkpt>
<trkpt lat="53.1475467" lon="18.1141880">
<ele>95</ele>
<time>2017-08-22T11:19:51Z</time>
</trkpt>
<trkpt lat="53.1475467" lon="18.1141880">
<ele>95</ele>
<time>2017-08-22T11:19:53Z</time>
</trkpt>
<trkpt lat="53.1475467" lon="18.1141880">
<ele>95</ele>
<time>2017-08-22T11:19:55Z</time>
</trkpt>
<trkpt lat="53.1475467" lon="18.1141880">
<ele>95</ele>
<time>2017-08-22T11:19:57Z</time>
</trkpt>
<trkpt lat="53.1475467" lon="18.1141880">
<ele>95</ele>
<time>2017-08-22T11:19:59Z</time>
</trkpt>
<trkpt lat="53.1475467" lon="18.1141880">
<ele>95</ele>
<time>2017-08-22T11:20:01Z</time>
</trkpt>
<trkpt lat="53.1475467" lon="18.1141880">
<ele>95</ele>
<time>2017-08-22T11:20:03Z</time>
</trkpt>
<trkpt lat="53.1475467" lon="18.1141880">
<ele>95</ele>
<time>2017-08-22T11:20:05Z</time>
</trkpt>
<trkpt lat="53.1475467" lon="18.1141880">
<ele>95</ele>
<time>2017-08-22T11:20:07Z</time>
</trkpt>
<trkpt lat="53.1475467" lon="18.1141880">
<ele>95</ele>
<time>2017-08-22T11:20:09Z</time>
</trkpt>
<trkpt lat="53.1475467" lon="18.1141880">
<ele>95</ele>
<time>2017-08-22T11:20:11Z</time>
</trkpt>
<trkpt lat="53.1475467" lon="18.1141880">
<ele>95</ele>
<time>2017-08-22T11:20:13Z</time>
</trkpt>
<trkpt lat="53.1475467" lon="18.1141880">
<ele>95</ele>
<time>2017-08-22T11:20:15Z</time>
</trkpt>
<trkpt lat="53.1475467" lon="18.1141880">
<ele>95</ele>
<time>2017-08-22T11:20:17Z</time>
</trkpt>
<trkpt lat="53.1475467" lon="18.1141880">
<ele>95</ele>
<time>2017-08-22T11:20:19Z</time>
</trkpt>
<trkpt lat="53.1475467" lon="18.1141880">
<ele>95</ele>
<time>2017-08-22T11:20:21Z</time>
</trkpt>
<trkpt lat="53.1475467" lon="18.1141880">
<ele>95</ele>
<time>2017-08-22T11:20:23Z</time>
</trkpt>
<trkpt lat="53.1475467" lon="18.1141880">
<ele>95</ele>
<time>2017-08-22T11:20:25Z</time>
</trkpt>
<trkpt lat="53.1475467" lon="18.1141880">
<ele>95</ele>
<time>2017-08-22T11:20:27Z</time>
</trkpt>
<trkpt lat="53.1475467" lon="18.1141880">
<ele>95</ele>
<time>2017-08-22T11:20:29Z</time>
</trkpt>
<trkpt lat="53.1475467" lon="18.1141880">
<ele>95</ele>
<time>2017-08-22T11:20:31Z</time>
</trkpt>
<trkpt lat="53.1475467" lon="18.1141880">
<ele>95</ele>
<time>2017-08-22T11:20:33Z</time>
</trkpt>
<trkpt lat="53.1475467" lon="18.1141880">
<ele>95</ele>
<time>2017-08-22T11:20:35Z</time>
</trkpt>
<trkpt lat="53.1475467" lon="18.1141880">
<ele>95</ele>
<time>2017-08-22T11:20:37Z</time>
</trkpt>
<trkpt lat="53.1475467" lon="18.1141880">
<ele>95</ele>
<time>2017-08-22T11:20:39Z</time>
</trkpt>
<trkpt lat="53.1475467" lon="18.1141880">
<ele>95</ele>
<time>2017-08-22T11:20:41Z</time>
</trkpt>
<trkpt lat="53.1475467" lon="18.1141880">
<ele>95</ele>
<time>2017-08-22T11:20:43Z</time>
</trkpt>
<trkpt lat="53.1475467" lon="18.1141880">
<ele>95</ele>
<time>2017-08-22T11:20:45Z</time>
</trkpt>
<trkpt lat="53.1475467" lon="18.1141880">
<ele>95</ele>
<time>2017-08-22T11:20:47Z</time>
</trkpt>
<trkpt lat="53.1475467" lon="18.1141880">
<ele>95</ele>
<time>2017-08-22T11:20:49Z</time>
</trkpt>
<trkpt lat="53.1475467" lon="18.1141880">
<ele>95</ele>
<time>2017-08-22T11:20:51Z</time>
</trkpt>
<trkpt lat="53.1475467" lon="18.1141880">
<ele>95</ele>
<time>2017-08-22T11:20:53Z</time>
</trkpt>
<trkpt lat="53.1475467" lon="18.1141880">
<ele>95</ele>
<time>2017-08-22T11:20:55Z</time>
</trkpt>
<trkpt lat="53.1475467" lon="18.1141880">
<ele>95</ele>
<time>2017-08-22T11:20:57Z</time>
</trkpt>
<trkpt lat="53.1475467" lon="18.1141880">
<ele>95</ele>
<time>2017-08-22T11:20:59Z</time>
</trkpt>
<trkpt lat="53.1475467" lon="18.1141880">
<ele>95</ele>
<time>2017-08-22T11:21:01Z</time>
</trkpt>
<trkpt lat="53.1475467" lon="18.1141880">
<ele>95</ele>
<time>2017-08-22T11:21:03Z</time>
</trkpt>
<trkpt lat="53.1475467" lon="18.1141880">
<ele>95</ele>
<time>2017-08-22T11:21:05Z</time>
</trkpt>
<trkpt lat="53.1475467" lon="18.1141880">
<ele>95</ele>
<time>2017-08-22T11:21:07Z</time>
</trkpt>
<trkpt lat="53.1475467" lon="18.1141880">
<ele>95</ele>
<time>2017-08-22T11:21:09Z</time>
</trkpt>
<trkpt lat="53.1475467" lon="18.1141880">
<ele>95</ele>
<time>2017-08-22T11:21:11Z</time>
</trkpt>
<trkpt lat="53.1475467" lon="18.1141880">
<ele>95</ele>
<time>2017-08-22T11:21:13Z</time>
</trkpt>
<trkpt lat="53.1475467" lon="18.1141880">
<ele>95</ele>
<time>2017-08-22T11:21:15Z</time>
</trkpt>
<trkpt lat="53.1475467" lon="18.1141880">
<ele>95</ele>
<time>2017-08-22T11:21:17Z</time>
</trkpt>
<trkpt lat="53.1475467" lon="18.1141880">
<ele>95</ele>
<time>2017-08-22T11:21:19Z</time>
</trkpt>
<trkpt lat="53.1475467" lon="18.1141880">
<ele>95</ele>
<time>2017-08-22T11:21:21Z</time>
</trkpt>
<trkpt lat="53.1475467" lon="18.1141880">
<ele>95</ele>
<time>2017-08-22T11:21:23Z</time>
</trkpt>
<trkpt lat="53.1475467" lon="18.1141880">
<ele>95</ele>
<time>2017-08-22T11:21:25Z</time>
</trkpt>
<trkpt lat="53.1475467" lon="18.1141880">
<ele>95</ele>
<time>2017-08-22T11:21:27Z</time>
</trkpt>
<trkpt lat="53.1475467" lon="18.1141880">
<ele>95</ele>
<time>2017-08-22T11:21:29Z</time>
</trkpt>
<trkpt lat="53.1475467" lon="18.1141880">
<ele>95</ele>
<time>2017-08-22T11:21:31Z</time>
</trkpt>
<trkpt lat="53.1475467" lon="18.1141880">
<ele>95</ele>
<time>2017-08-22T11:21:33Z</time>
</trkpt>
<trkpt lat="53.1475467" lon="18.1141880">
<ele>95</ele>
<time>2017-08-22T11:21:35Z</time>
</trkpt>
<trkpt lat="53.1475467" lon="18.1141880">
<ele>95</ele>
<time>2017-08-22T11:21:37Z</time>
</trkpt>
<trkpt lat="53.1475467" lon="18.1141880">
<ele>95</ele>
<time>2017-08-22T11:21:39Z</time>
</trkpt>
<trkpt lat="53.1475467" lon="18.1141880">
<ele>95</ele>
<time>2017-08-22T11:21:41Z</time>
</trkpt>
<trkpt lat="53.1475467" lon="18.1141880">
<ele>95</ele>
<time>2017-08-22T11:21:43Z</time>
</trkpt>
<trkpt lat="53.1475467" lon="18.1141880">
<ele>95</ele>
<time>2017-08-22T11:21:45Z</time>
</trkpt>
<trkpt lat="53.1475467" lon="18.1141880">
<ele>95</ele>
<time>2017-08-22T11:21:47Z</time>
</trkpt>
<trkpt lat="53.1475467" lon="18.1141880">
<ele>95</ele>
<time>2017-08-22T11:21:49Z</time>
</trkpt>
<trkpt lat="53.1475467" lon="18.1141880">
<ele>95</ele>
<time>2017-08-22T11:21:51Z</time>
</trkpt>
<trkpt lat="53.1475467" lon="18.1141880">
<ele>95</ele>
<time>2017-08-22T11:21:53Z</time>
</trkpt>
<trkpt lat="53.1475467" lon="18.1141880">
<ele>95</ele>
<time>2017-08-22T11:21:55Z</time>
</trkpt>
<trkpt lat="53.1475467" lon="18.1141880">
<ele>95</ele>
<time>2017-08-22T11:21:57Z</time>
</trkpt>
<trkpt lat="53.1475467" lon="18.1141880">
<ele>95</ele>
<time>2017-08-22T11:21:59Z</time>
</trkpt>
<trkpt lat="53.1475467" lon="18.1141880">
<ele>95</ele>
<time>2017-08-22T11:22:01Z</time>
</trkpt>
<trkpt lat="53.1475467" lon="18.1141880">
<ele>95</ele>
<time>2017-08-22T11:22:03Z</time>
</trkpt>
<trkpt lat="53.1475561" lon="18.1141524">
<ele>95</ele>
<time>2017-08-22T11:22:05Z</time>
</trkpt>
<trkpt lat="53.1475509" lon="18.1141436">
<ele>94</ele>
<time>2017-08-22T11:22:07Z</time>
</trkpt>
<trkpt lat="53.1475509" lon="18.1141436">
<ele>94</ele>
<time>2017-08-22T11:22:09Z</time>
</trkpt>
<trkpt lat="53.1475509" lon="18.1141436">
<ele>94</ele>
<time>2017-08-22T11:22:11Z</time>
</trkpt>
<trkpt lat="53.1475509" lon="18.1141436">
<ele>94</ele>
<time>2017-08-22T11:22:13Z</time>
</trkpt>
<trkpt lat="53.1475509" lon="18.1141436">
<ele>94</ele>
<time>2017-08-22T11:22:15Z</time>
</trkpt>
<trkpt lat="53.1475509" lon="18.1141436">
<ele>94</ele>
<time>2017-08-22T11:22:17Z</time>
</trkpt>
<trkpt lat="53.1475509" lon="18.1141436">
<ele>94</ele>
<time>2017-08-22T11:22:19Z</time>
</trkpt>
<trkpt lat="53.1475509" lon="18.1141436">
<ele>94</ele>
<time>2017-08-22T11:22:21Z</time>
</trkpt>
<trkpt lat="53.1475509" lon="18.1141436">
<ele>94</ele>
<time>2017-08-22T11:22:23Z</time>
</trkpt>
<trkpt lat="53.1475509" lon="18.1141436">
<ele>94</ele>
<time>2017-08-22T11:22:25Z</time>
</trkpt>
<trkpt lat="53.1475509" lon="18.1141436">
<ele>94</ele>
<time>2017-08-22T11:22:27Z</time>
</trkpt>
<trkpt lat="53.1475509" lon="18.1141436">
<ele>94</ele>
<time>2017-08-22T11:22:29Z</time>
</trkpt>
<trkpt lat="53.1475509" lon="18.1141436">
<ele>94</ele>
<time>2017-08-22T11:22:31Z</time>
</trkpt>
<trkpt lat="53.1475509" lon="18.1141436">
<ele>94</ele>
<time>2017-08-22T11:22:33Z</time>
</trkpt>
<trkpt lat="53.1475509" lon="18.1141436">
<ele>94</ele>
<time>2017-08-22T11:22:35Z</time>
</trkpt>
<trkpt lat="53.1475509" lon="18.1141436">
<ele>94</ele>
<time>2017-08-22T11:22:37Z</time>
</trkpt>
<trkpt lat="53.1475509" lon="18.1141436">
<ele>94</ele>
<time>2017-08-22T11:22:39Z</time>
</trkpt>
<trkpt lat="53.1475509" lon="18.1141436">
<ele>94</ele>
<time>2017-08-22T11:22:41Z</time>
</trkpt>
<trkpt lat="53.1475509" lon="18.1141436">
<ele>94</ele>
<time>2017-08-22T11:22:43Z</time>
</trkpt>
<trkpt lat="53.1475509" lon="18.1141436">
<ele>94</ele>
<time>2017-08-22T11:22:45Z</time>
</trkpt>
<trkpt lat="53.1475509" lon="18.1141436">
<ele>94</ele>
<time>2017-08-22T11:22:47Z</time>
</trkpt>
<trkpt lat="53.1475509" lon="18.1141436">
<ele>94</ele>
<time>2017-08-22T11:22:49Z</time>
</trkpt>
<trkpt lat="53.1475509" lon="18.1141436">
<ele>94</ele>
<time>2017-08-22T11:22:51Z</time>
</trkpt>
<trkpt lat="53.1475509" lon="18.1141436">
<ele>94</ele>
<time>2017-08-22T11:22:53Z</time>
</trkpt>
<trkpt lat="53.1475509" lon="18.1141436">
<ele>94</ele>
<time>2017-08-22T11:22:55Z</time>
</trkpt>
<trkpt lat="53.1475509" lon="18.1141436">
<ele>94</ele>
<time>2017-08-22T11:22:57Z</time>
</trkpt>
<trkpt lat="53.1475509" lon="18.1141436">
<ele>94</ele>
<time>2017-08-22T11:22:59Z</time>
</trkpt>
<trkpt lat="53.1475509" lon="18.1141436">
<ele>94</ele>
<time>2017-08-22T11:23:01Z</time>
</trkpt>
<trkpt lat="53.1475509" lon="18.1141436">
<ele>94</ele>
<time>2017-08-22T11:23:03Z</time>
</trkpt>
<trkpt lat="53.1475509" lon="18.1141436">
<ele>94</ele>
<time>2017-08-22T11:23:05Z</time>
</trkpt>
<trkpt lat="53.1475509" lon="18.1141436">
<ele>94</ele>
<time>2017-08-22T11:23:07Z</time>
</trkpt>
<trkpt lat="53.1475509" lon="18.1141436">
<ele>94</ele>
<time>2017-08-22T11:23:09Z</time>
</trkpt>
<trkpt lat="53.1475509" lon="18.1141436">
<ele>94</ele>
<time>2017-08-22T11:23:11Z</time>
</trkpt>
<trkpt lat="53.1475509" lon="18.1141436">
<ele>94</ele>
<time>2017-08-22T11:23:13Z</time>
</trkpt>
<trkpt lat="53.1475509" lon="18.1141436">
<ele>94</ele>
<time>2017-08-22T11:23:15Z</time>
</trkpt>
<trkpt lat="53.1475509" lon="18.1141436">
<ele>94</ele>
<time>2017-08-22T11:23:17Z</time>
</trkpt>
<trkpt lat="53.1475509" lon="18.1141436">
<ele>94</ele>
<time>2017-08-22T11:23:19Z</time>
</trkpt>
<trkpt lat="53.1475509" lon="18.1141436">
<ele>94</ele>
<time>2017-08-22T11:23:21Z</time>
</trkpt>
<trkpt lat="53.1475509" lon="18.1141436">
<ele>94</ele>
<time>2017-08-22T11:23:23Z</time>
</trkpt>
<trkpt lat="53.1475509" lon="18.1141436">
<ele>94</ele>
<time>2017-08-22T11:23:25Z</time>
</trkpt>
<trkpt lat="53.1475509" lon="18.1141436">
<ele>94</ele>
<time>2017-08-22T11:23:27Z</time>
</trkpt>
<trkpt lat="53.1475509" lon="18.1141436">
<ele>94</ele>
<time>2017-08-22T11:23:29Z</time>
</trkpt>
<trkpt lat="53.1475509" lon="18.1141436">
<ele>94</ele>
<time>2017-08-22T11:23:31Z</time>
</trkpt>
<trkpt lat="53.1475509" lon="18.1141436">
<ele>94</ele>
<time>2017-08-22T11:23:33Z</time>
</trkpt>
<trkpt lat="53.1475509" lon="18.1141436">
<ele>94</ele>
<time>2017-08-22T11:23:35Z</time>
</trkpt>
<trkpt lat="53.1475509" lon="18.1141436">
<ele>94</ele>
<time>2017-08-22T11:23:37Z</time>
</trkpt>
<trkpt lat="53.1475509" lon="18.1141436">
<ele>94</ele>
<time>2017-08-22T11:23:39Z</time>
</trkpt>
<trkpt lat="53.1475509" lon="18.1141436">
<ele>94</ele>
<time>2017-08-22T11:23:42Z</time>
</trkpt>
<trkpt lat="53.1475509" lon="18.1141436">
<ele>94</ele>
<time>2017-08-22T11:23:44Z</time>
</trkpt>
<trkpt lat="53.1475509" lon="18.1141436">
<ele>94</ele>
<time>2017-08-22T11:23:46Z</time>
</trkpt>
<trkpt lat="53.1475509" lon="18.1141436">
<ele>94</ele>
<time>2017-08-22T11:23:48Z</time>
</trkpt>
<trkpt lat="53.1475509" lon="18.1141436">
<ele>94</ele>
<time>2017-08-22T11:23:50Z</time>
</trkpt>
<trkpt lat="53.1475509" lon="18.1141436">
<ele>94</ele>
<time>2017-08-22T11:23:52Z</time>
</trkpt>
<trkpt lat="53.1475509" lon="18.1141436">
<ele>94</ele>
<time>2017-08-22T11:23:54Z</time>
</trkpt>
<trkpt lat="53.1475509" lon="18.1141436">
<ele>94</ele>
<time>2017-08-22T11:23:56Z</time>
</trkpt>
<trkpt lat="53.1475509" lon="18.1141436">
<ele>94</ele>
<time>2017-08-22T11:23:58Z</time>
</trkpt>
<trkpt lat="53.1475509" lon="18.1141436">
<ele>94</ele>
<time>2017-08-22T11:24:00Z</time>
</trkpt>
<trkpt lat="53.1475509" lon="18.1141436">
<ele>94</ele>
<time>2017-08-22T11:24:02Z</time>
</trkpt>
<trkpt lat="53.1475509" lon="18.1141436">
<ele>94</ele>
<time>2017-08-22T11:24:04Z</time>
</trkpt>
<trkpt lat="53.1475509" lon="18.1141436">
<ele>94</ele>
<time>2017-08-22T11:24:06Z</time>
</trkpt>
<trkpt lat="53.1475509" lon="18.1141436">
<ele>94</ele>
<time>2017-08-22T11:24:08Z</time>
</trkpt>
<trkpt lat="53.1475509" lon="18.1141436">
<ele>94</ele>
<time>2017-08-22T11:24:10Z</time>
</trkpt>
<trkpt lat="53.1475509" lon="18.1141436">
<ele>94</ele>
<time>2017-08-22T11:24:12Z</time>
</trkpt>
<trkpt lat="53.1475509" lon="18.1141436">
<ele>94</ele>
<time>2017-08-22T11:24:14Z</time>
</trkpt>
<trkpt lat="53.1475509" lon="18.1141436">
<ele>94</ele>
<time>2017-08-22T11:24:16Z</time>
</trkpt>
<trkpt lat="53.1475509" lon="18.1141436">
<ele>94</ele>
<time>2017-08-22T11:24:18Z</time>
</trkpt>
<trkpt lat="53.1475509" lon="18.1141436">
<ele>94</ele>
<time>2017-08-22T11:24:20Z</time>
</trkpt>
<trkpt lat="53.1475509" lon="18.1141436">
<ele>94</ele>
<time>2017-08-22T11:24:22Z</time>
</trkpt>
<trkpt lat="53.1475509" lon="18.1141436">
<ele>94</ele>
<time>2017-08-22T11:24:24Z</time>
</trkpt>
<trkpt lat="53.1475509" lon="18.1141436">
<ele>94</ele>
<time>2017-08-22T11:24:26Z</time>
</trkpt>
<trkpt lat="53.1475509" lon="18.1141436">
<ele>94</ele>
<time>2017-08-22T11:24:28Z</time>
</trkpt>
<trkpt lat="53.1475509" lon="18.1141436">
<ele>94</ele>
<time>2017-08-22T11:24:30Z</time>
</trkpt>
<trkpt lat="53.1475509" lon="18.1141436">
<ele>94</ele>
<time>2017-08-22T11:24:32Z</time>
</trkpt>
<trkpt lat="53.1475509" lon="18.1141436">
<ele>94</ele>
<time>2017-08-22T11:24:34Z</time>
</trkpt>
<trkpt lat="53.1475509" lon="18.1141436">
<ele>94</ele>
<time>2017-08-22T11:24:36Z</time>
</trkpt>
<trkpt lat="53.1475509" lon="18.1141436">
<ele>94</ele>
<time>2017-08-22T11:24:38Z</time>
</trkpt>
<trkpt lat="53.1475509" lon="18.1141436">
<ele>94</ele>
<time>2017-08-22T11:24:40Z</time>
</trkpt>
<trkpt lat="53.1475509" lon="18.1141436">
<ele>94</ele>
<time>2017-08-22T11:24:42Z</time>
</trkpt>
<trkpt lat="53.1475509" lon="18.1141436">
<ele>94</ele>
<time>2017-08-22T11:24:44Z</time>
</trkpt>
<trkpt lat="53.1475509" lon="18.1141436">
<ele>94</ele>
<time>2017-08-22T11:24:46Z</time>
</trkpt>
<trkpt lat="53.1475509" lon="18.1141436">
<ele>94</ele>
<time>2017-08-22T11:24:48Z</time>
</trkpt>
<trkpt lat="53.1475509" lon="18.1141436">
<ele>94</ele>
<time>2017-08-22T11:24:50Z</time>
</trkpt>
<trkpt lat="53.1475509" lon="18.1141436">
<ele>94</ele>
<time>2017-08-22T11:24:52Z</time>
</trkpt>
<trkpt lat="53.1475509" lon="18.1141436">
<ele>94</ele>
<time>2017-08-22T11:24:54Z</time>
</trkpt>
<trkpt lat="53.1475509" lon="18.1141436">
<ele>94</ele>
<time>2017-08-22T11:24:56Z</time>
</trkpt>
<trkpt lat="53.1475509" lon="18.1141436">
<ele>94</ele>
<time>2017-08-22T11:24:58Z</time>
</trkpt>
<trkpt lat="53.1475509" lon="18.1141436">
<ele>94</ele>
<time>2017-08-22T11:25:00Z</time>
</trkpt>
<trkpt lat="53.1475509" lon="18.1141436">
<ele>94</ele>
<time>2017-08-22T11:25:02Z</time>
</trkpt>
<trkpt lat="53.1475509" lon="18.1141436">
<ele>94</ele>
<time>2017-08-22T11:25:04Z</time>
</trkpt>
<trkpt lat="53.1475509" lon="18.1141436">
<ele>94</ele>
<time>2017-08-22T11:25:06Z</time>
</trkpt>
<trkpt lat="53.1475509" lon="18.1141436">
<ele>94</ele>
<time>2017-08-22T11:25:08Z</time>
</trkpt>
<trkpt lat="53.1475509" lon="18.1141436">
<ele>94</ele>
<time>2017-08-22T11:25:10Z</time>
</trkpt>
<trkpt lat="53.1475509" lon="18.1141436">
<ele>94</ele>
<time>2017-08-22T11:25:12Z</time>
</trkpt>
<trkpt lat="53.1475509" lon="18.1141436">
<ele>94</ele>
<time>2017-08-22T11:25:14Z</time>
</trkpt>
<trkpt lat="53.1475509" lon="18.1141436">
<ele>94</ele>
<time>2017-08-22T11:25:16Z</time>
</trkpt>
<trkpt lat="53.1475509" lon="18.1141436">
<ele>94</ele>
<time>2017-08-22T11:25:18Z</time>
</trkpt>
<trkpt lat="53.1475509" lon="18.1141436">
<ele>94</ele>
<time>2017-08-22T11:25:20Z</time>
</trkpt>
<trkpt lat="53.1475509" lon="18.1141436">
<ele>94</ele>
<time>2017-08-22T11:25:22Z</time>
</trkpt>
<trkpt lat="53.1475509" lon="18.1141436">
<ele>94</ele>
<time>2017-08-22T11:25:24Z</time>
</trkpt>
<trkpt lat="53.1475509" lon="18.1141436">
<ele>94</ele>
<time>2017-08-22T11:25:26Z</time>
</trkpt>
<trkpt lat="53.1475509" lon="18.1141436">
<ele>94</ele>
<time>2017-08-22T11:25:28Z</time>
</trkpt>
<trkpt lat="53.1475509" lon="18.1141436">
<ele>94</ele>
<time>2017-08-22T11:25:30Z</time>
</trkpt>
<trkpt lat="53.1475509" lon="18.1141436">
<ele>94</ele>
<time>2017-08-22T11:25:32Z</time>
</trkpt>
<trkpt lat="53.1475509" lon="18.1141436">
<ele>94</ele>
<time>2017-08-22T11:25:34Z</time>
</trkpt>
<trkpt lat="53.1475509" lon="18.1141436">
<ele>94</ele>
<time>2017-08-22T11:25:36Z</time>
</trkpt>
<trkpt lat="53.1475509" lon="18.1141436">
<ele>94</ele>
<time>2017-08-22T11:25:38Z</time>
</trkpt>
<trkpt lat="53.1475509" lon="18.1141436">
<ele>94</ele>
<time>2017-08-22T11:25:40Z</time>
</trkpt>
<trkpt lat="53.1475509" lon="18.1141436">
<ele>94</ele>
<time>2017-08-22T11:25:42Z</time>
</trkpt>
<trkpt lat="53.1475509" lon="18.1141436">
<ele>94</ele>
<time>2017-08-22T11:25:44Z</time>
</trkpt>
<trkpt lat="53.1475509" lon="18.1141436">
<ele>94</ele>
<time>2017-08-22T11:25:46Z</time>
</trkpt>
<trkpt lat="53.1475509" lon="18.1141436">
<ele>94</ele>
<time>2017-08-22T11:25:48Z</time>
</trkpt>
<trkpt lat="53.1475509" lon="18.1141436">
<ele>94</ele>
<time>2017-08-22T11:25:50Z</time>
</trkpt>
<trkpt lat="53.1475509" lon="18.1141436">
<ele>94</ele>
<time>2017-08-22T11:25:52Z</time>
</trkpt>
<trkpt lat="53.1475509" lon="18.1141436">
<ele>94</ele>
<time>2017-08-22T11:25:54Z</time>
</trkpt>
<trkpt lat="53.1475509" lon="18.1141436">
<ele>94</ele>
<time>2017-08-22T11:25:56Z</time>
</trkpt>
<trkpt lat="53.1475509" lon="18.1141436">
<ele>94</ele>
<time>2017-08-22T11:25:58Z</time>
</trkpt>
<trkpt lat="53.1475509" lon="18.1141436">
<ele>94</ele>
<time>2017-08-22T11:26:00Z</time>
</trkpt>
<trkpt lat="53.1475509" lon="18.1141436">
<ele>94</ele>
<time>2017-08-22T11:26:02Z</time>
</trkpt>
<trkpt lat="53.1475509" lon="18.1141436">
<ele>94</ele>
<time>2017-08-22T11:26:04Z</time>
</trkpt>
<trkpt lat="53.1475509" lon="18.1141436">
<ele>94</ele>
<time>2017-08-22T11:26:06Z</time>
</trkpt>
<trkpt lat="53.1475509" lon="18.1141436">
<ele>94</ele>
<time>2017-08-22T11:26:08Z</time>
</trkpt>
<trkpt lat="53.1475509" lon="18.1141436">
<ele>94</ele>
<time>2017-08-22T11:26:10Z</time>
</trkpt>
<trkpt lat="53.1475509" lon="18.1141436">
<ele>94</ele>
<time>2017-08-22T11:26:12Z</time>
</trkpt>
<trkpt lat="53.1475509" lon="18.1141436">
<ele>94</ele>
<time>2017-08-22T11:26:14Z</time>
</trkpt>
<trkpt lat="53.1475509" lon="18.1141436">
<ele>94</ele>
<time>2017-08-22T11:26:16Z</time>
</trkpt>
<trkpt lat="53.1475509" lon="18.1141436">
<ele>94</ele>
<time>2017-08-22T11:26:18Z</time>
</trkpt>
<trkpt lat="53.1475509" lon="18.1141436">
<ele>94</ele>
<time>2017-08-22T11:26:20Z</time>
</trkpt>
<trkpt lat="53.1475509" lon="18.1141436">
<ele>94</ele>
<time>2017-08-22T11:26:22Z</time>
</trkpt>
<trkpt lat="53.1475509" lon="18.1141436">
<ele>94</ele>
<time>2017-08-22T11:26:24Z</time>
</trkpt>
<trkpt lat="53.1475509" lon="18.1141436">
<ele>94</ele>
<time>2017-08-22T11:26:26Z</time>
</trkpt>
<trkpt lat="53.1475509" lon="18.1141436">
<ele>94</ele>
<time>2017-08-22T11:26:28Z</time>
</trkpt>
<trkpt lat="53.1475509" lon="18.1141436">
<ele>94</ele>
<time>2017-08-22T11:26:30Z</time>
</trkpt>
<trkpt lat="53.1475509" lon="18.1141436">
<ele>94</ele>
<time>2017-08-22T11:26:32Z</time>
</trkpt>
<trkpt lat="53.1475509" lon="18.1141436">
<ele>94</ele>
<time>2017-08-22T11:26:34Z</time>
</trkpt>
<trkpt lat="53.1475509" lon="18.1141436">
<ele>94</ele>
<time>2017-08-22T11:26:36Z</time>
</trkpt>
<trkpt lat="53.1475509" lon="18.1141436">
<ele>94</ele>
<time>2017-08-22T11:26:38Z</time>
</trkpt>
<trkpt lat="53.1475509" lon="18.1141436">
<ele>94</ele>
<time>2017-08-22T11:26:40Z</time>
</trkpt>
<trkpt lat="53.1475509" lon="18.1141436">
<ele>94</ele>
<time>2017-08-22T11:26:42Z</time>
</trkpt>
<trkpt lat="53.1475509" lon="18.1141436">
<ele>94</ele>
<time>2017-08-22T11:26:44Z</time>
</trkpt>
<trkpt lat="53.1475509" lon="18.1141436">
<ele>94</ele>
<time>2017-08-22T11:26:46Z</time>
</trkpt>
<trkpt lat="53.1475509" lon="18.1141436">
<ele>94</ele>
<time>2017-08-22T11:26:48Z</time>
</trkpt>
<trkpt lat="53.1475509" lon="18.1141436">
<ele>94</ele>
<time>2017-08-22T11:26:50Z</time>
</trkpt>
<trkpt lat="53.1475509" lon="18.1141436">
<ele>94</ele>
<time>2017-08-22T11:26:52Z</time>
</trkpt>
<trkpt lat="53.1475509" lon="18.1141436">
<ele>94</ele>
<time>2017-08-22T11:26:54Z</time>
</trkpt>
<trkpt lat="53.1475509" lon="18.1141436">
<ele>94</ele>
<time>2017-08-22T11:26:56Z</time>
</trkpt>
<trkpt lat="53.1475509" lon="18.1141436">
<ele>94</ele>
<time>2017-08-22T11:26:58Z</time>
</trkpt>
<trkpt lat="53.1475509" lon="18.1141436">
<ele>94</ele>
<time>2017-08-22T11:27:00Z</time>
</trkpt>
<trkpt lat="53.1475509" lon="18.1141436">
<ele>94</ele>
<time>2017-08-22T11:27:02Z</time>
</trkpt>
<trkpt lat="53.1475509" lon="18.1141436">
<ele>94</ele>
<time>2017-08-22T11:27:04Z</time>
</trkpt>
<trkpt lat="53.1475509" lon="18.1141436">
<ele>94</ele>
<time>2017-08-22T11:27:06Z</time>
</trkpt>
<trkpt lat="53.1475509" lon="18.1141436">
<ele>94</ele>
<time>2017-08-22T11:27:08Z</time>
</trkpt>
<trkpt lat="53.1475509" lon="18.1141436">
<ele>94</ele>
<time>2017-08-22T11:27:10Z</time>
</trkpt>
<trkpt lat="53.1475509" lon="18.1141436">
<ele>94</ele>
<time>2017-08-22T11:27:12Z</time>
</trkpt>
<trkpt lat="53.1475509" lon="18.1141436">
<ele>94</ele>
<time>2017-08-22T11:27:14Z</time>
</trkpt>
<trkpt lat="53.1475509" lon="18.1141436">
<ele>94</ele>
<time>2017-08-22T11:27:16Z</time>
</trkpt>
<trkpt lat="53.1475509" lon="18.1141436">
<ele>94</ele>
<time>2017-08-22T11:27:18Z</time>
</trkpt>
<trkpt lat="53.1475509" lon="18.1141436">
<ele>94</ele>
<time>2017-08-22T11:27:20Z</time>
</trkpt>
<trkpt lat="53.1475509" lon="18.1141436">
<ele>94</ele>
<time>2017-08-22T11:27:22Z</time>
</trkpt>
<trkpt lat="53.1475509" lon="18.1141436">
<ele>94</ele>
<time>2017-08-22T11:27:24Z</time>
</trkpt>
<trkpt lat="53.1475509" lon="18.1141436">
<ele>94</ele>
<time>2017-08-22T11:27:26Z</time>
</trkpt>
<trkpt lat="53.1475509" lon="18.1141436">
<ele>94</ele>
<time>2017-08-22T11:27:28Z</time>
</trkpt>
<trkpt lat="53.1475509" lon="18.1141436">
<ele>94</ele>
<time>2017-08-22T11:27:30Z</time>
</trkpt>
<trkpt lat="53.1475509" lon="18.1141436">
<ele>94</ele>
<time>2017-08-22T11:27:32Z</time>
</trkpt>
<trkpt lat="53.1475509" lon="18.1141436">
<ele>94</ele>
<time>2017-08-22T11:27:34Z</time>
</trkpt>
<trkpt lat="53.1475509" lon="18.1141436">
<ele>94</ele>
<time>2017-08-22T11:27:36Z</time>
</trkpt>
<trkpt lat="53.1475509" lon="18.1141436">
<ele>94</ele>
<time>2017-08-22T11:27:38Z</time>
</trkpt>
<trkpt lat="53.1475509" lon="18.1141436">
<ele>94</ele>
<time>2017-08-22T11:27:41Z</time>
</trkpt>
<trkpt lat="53.1475509" lon="18.1141436">
<ele>94</ele>
<time>2017-08-22T11:27:43Z</time>
</trkpt>
<trkpt lat="53.1475509" lon="18.1141436">
<ele>94</ele>
<time>2017-08-22T11:27:45Z</time>
</trkpt>
<trkpt lat="53.1475509" lon="18.1141436">
<ele>94</ele>
<time>2017-08-22T11:27:47Z</time>
</trkpt>
<trkpt lat="53.1475509" lon="18.1141436">
<ele>94</ele>
<time>2017-08-22T11:27:49Z</time>
</trkpt>
<trkpt lat="53.1475509" lon="18.1141436">
<ele>94</ele>
<time>2017-08-22T11:27:51Z</time>
</trkpt>
<trkpt lat="53.1475509" lon="18.1141436">
<ele>94</ele>
<time>2017-08-22T11:27:53Z</time>
</trkpt>
<trkpt lat="53.1475509" lon="18.1141436">
<ele>94</ele>
<time>2017-08-22T11:27:55Z</time>
</trkpt>
<trkpt lat="53.1475509" lon="18.1141436">
<ele>94</ele>
<time>2017-08-22T11:27:57Z</time>
</trkpt>
<trkpt lat="53.1475509" lon="18.1141436">
<ele>94</ele>
<time>2017-08-22T11:27:59Z</time>
</trkpt>
<trkpt lat="53.1475509" lon="18.1141436">
<ele>94</ele>
<time>2017-08-22T11:28:01Z</time>
</trkpt>
<trkpt lat="53.1475509" lon="18.1141436">
<ele>94</ele>
<time>2017-08-22T11:28:03Z</time>
</trkpt>
<trkpt lat="53.1475509" lon="18.1141436">
<ele>94</ele>
<time>2017-08-22T11:28:05Z</time>
</trkpt>
<trkpt lat="53.1475509" lon="18.1141436">
<ele>94</ele>
<time>2017-08-22T11:28:07Z</time>
</trkpt>
<trkpt lat="53.1475509" lon="18.1141436">
<ele>94</ele>
<time>2017-08-22T11:28:09Z</time>
</trkpt>
<trkpt lat="53.1475509" lon="18.1141436">
<ele>94</ele>
<time>2017-08-22T11:28:11Z</time>
</trkpt>
<trkpt lat="53.1475509" lon="18.1141436">
<ele>94</ele>
<time>2017-08-22T11:28:13Z</time>
</trkpt>
<trkpt lat="53.1475509" lon="18.1141436">
<ele>94</ele>
<time>2017-08-22T11:28:15Z</time>
</trkpt>
<trkpt lat="53.1475509" lon="18.1141436">
<ele>94</ele>
<time>2017-08-22T11:28:17Z</time>
</trkpt>
<trkpt lat="53.1475509" lon="18.1141436">
<ele>94</ele>
<time>2017-08-22T11:28:19Z</time>
</trkpt>
<trkpt lat="53.1475509" lon="18.1141436">
<ele>94</ele>
<time>2017-08-22T11:28:21Z</time>
</trkpt>
<trkpt lat="53.1475509" lon="18.1141436">
<ele>94</ele>
<time>2017-08-22T11:28:23Z</time>
</trkpt>
<trkpt lat="53.1475509" lon="18.1141436">
<ele>94</ele>
<time>2017-08-22T11:28:25Z</time>
</trkpt>
<trkpt lat="53.1475509" lon="18.1141436">
<ele>94</ele>
<time>2017-08-22T11:28:27Z</time>
</trkpt>
<trkpt lat="53.1475509" lon="18.1141436">
<ele>94</ele>
<time>2017-08-22T11:28:29Z</time>
</trkpt>
<trkpt lat="53.1475509" lon="18.1141436">
<ele>94</ele>
<time>2017-08-22T11:28:31Z</time>
</trkpt>
<trkpt lat="53.1475509" lon="18.1141436">
<ele>94</ele>
<time>2017-08-22T11:28:33Z</time>
</trkpt>
<trkpt lat="53.1475509" lon="18.1141436">
<ele>94</ele>
<time>2017-08-22T11:28:35Z</time>
</trkpt>
<trkpt lat="53.1475509" lon="18.1141436">
<ele>94</ele>
<time>2017-08-22T11:28:37Z</time>
</trkpt>
<trkpt lat="53.1475509" lon="18.1141436">
<ele>94</ele>
<time>2017-08-22T11:28:39Z</time>
</trkpt>
<trkpt lat="53.1475509" lon="18.1141436">
<ele>94</ele>
<time>2017-08-22T11:28:41Z</time>
</trkpt>
<trkpt lat="53.1475509" lon="18.1141436">
<ele>94</ele>
<time>2017-08-22T11:28:43Z</time>
</trkpt>
<trkpt lat="53.1475509" lon="18.1141436">
<ele>94</ele>
<time>2017-08-22T11:28:45Z</time>
</trkpt>
<trkpt lat="53.1475509" lon="18.1141436">
<ele>94</ele>
<time>2017-08-22T11:28:47Z</time>
</trkpt>
<trkpt lat="53.1475509" lon="18.1141436">
<ele>94</ele>
<time>2017-08-22T11:28:49Z</time>
</trkpt>
<trkpt lat="53.1475509" lon="18.1141436">
<ele>94</ele>
<time>2017-08-22T11:28:51Z</time>
</trkpt>
<trkpt lat="53.1475509" lon="18.1141436">
<ele>94</ele>
<time>2017-08-22T11:28:53Z</time>
</trkpt>
<trkpt lat="53.1475509" lon="18.1141436">
<ele>94</ele>
<time>2017-08-22T11:28:55Z</time>
</trkpt>
<trkpt lat="53.1475509" lon="18.1141436">
<ele>94</ele>
<time>2017-08-22T11:28:57Z</time>
</trkpt>
<trkpt lat="53.1475509" lon="18.1141436">
<ele>94</ele>
<time>2017-08-22T11:28:59Z</time>
</trkpt>
<trkpt lat="53.1475509" lon="18.1141436">
<ele>94</ele>
<time>2017-08-22T11:29:01Z</time>
</trkpt>
<trkpt lat="53.1475509" lon="18.1141436">
<ele>94</ele>
<time>2017-08-22T11:29:03Z</time>
</trkpt>
<trkpt lat="53.1475509" lon="18.1141436">
<ele>94</ele>
<time>2017-08-22T11:29:05Z</time>
</trkpt>
<trkpt lat="53.1475509" lon="18.1141436">
<ele>94</ele>
<time>2017-08-22T11:29:07Z</time>
</trkpt>
<trkpt lat="53.1475509" lon="18.1141436">
<ele>94</ele>
<time>2017-08-22T11:29:09Z</time>
</trkpt>
<trkpt lat="53.1475509" lon="18.1141436">
<ele>94</ele>
<time>2017-08-22T11:29:11Z</time>
</trkpt>
<trkpt lat="53.1475509" lon="18.1141436">
<ele>94</ele>
<time>2017-08-22T11:29:13Z</time>
</trkpt>
<trkpt lat="53.1475509" lon="18.1141436">
<ele>94</ele>
<time>2017-08-22T11:29:15Z</time>
</trkpt>
<trkpt lat="53.1475509" lon="18.1141436">
<ele>94</ele>
<time>2017-08-22T11:29:17Z</time>
</trkpt>
<trkpt lat="53.1475509" lon="18.1141436">
<ele>94</ele>
<time>2017-08-22T11:29:19Z</time>
</trkpt>
<trkpt lat="53.1475509" lon="18.1141436">
<ele>94</ele>
<time>2017-08-22T11:29:21Z</time>
</trkpt>
<trkpt lat="53.1475509" lon="18.1141436">
<ele>94</ele>
<time>2017-08-22T11:29:23Z</time>
</trkpt>
<trkpt lat="53.1475509" lon="18.1141436">
<ele>94</ele>
<time>2017-08-22T11:29:25Z</time>
</trkpt>
<trkpt lat="53.1475509" lon="18.1141436">
<ele>94</ele>
<time>2017-08-22T11:29:27Z</time>
</trkpt>
<trkpt lat="53.1475509" lon="18.1141436">
<ele>94</ele>
<time>2017-08-22T11:29:29Z</time>
</trkpt>
<trkpt lat="53.1475509" lon="18.1141436">
<ele>94</ele>
<time>2017-08-22T11:29:31Z</time>
</trkpt>
<trkpt lat="53.1475509" lon="18.1141436">
<ele>94</ele>
<time>2017-08-22T11:29:33Z</time>
</trkpt>
<trkpt lat="53.1475509" lon="18.1141436">
<ele>94</ele>
<time>2017-08-22T11:29:35Z</time>
</trkpt>
<trkpt lat="53.1475509" lon="18.1141436">
<ele>94</ele>
<time>2017-08-22T11:29:37Z</time>
</trkpt>
<trkpt lat="53.1475509" lon="18.1141436">
<ele>94</ele>
<time>2017-08-22T11:29:39Z</time>
</trkpt>
<trkpt lat="53.1475509" lon="18.1141436">
<ele>94</ele>
<time>2017-08-22T11:29:41Z</time>
</trkpt>
<trkpt lat="53.1475509" lon="18.1141436">
<ele>94</ele>
<time>2017-08-22T11:29:43Z</time>
</trkpt>
<trkpt lat="53.1475509" lon="18.1141436">
<ele>94</ele>
<time>2017-08-22T11:29:45Z</time>
</trkpt>
<trkpt lat="53.1475509" lon="18.1141436">
<ele>94</ele>
<time>2017-08-22T11:29:47Z</time>
</trkpt>
<trkpt lat="53.1475509" lon="18.1141436">
<ele>94</ele>
<time>2017-08-22T11:29:49Z</time>
</trkpt>
<trkpt lat="53.1475509" lon="18.1141436">
<ele>94</ele>
<time>2017-08-22T11:29:51Z</time>
</trkpt>
<trkpt lat="53.1475509" lon="18.1141436">
<ele>94</ele>
<time>2017-08-22T11:29:53Z</time>
</trkpt>
<trkpt lat="53.1475509" lon="18.1141436">
<ele>94</ele>
<time>2017-08-22T11:29:55Z</time>
</trkpt>
<trkpt lat="53.1475509" lon="18.1141436">
<ele>94</ele>
<time>2017-08-22T11:29:57Z</time>
</trkpt>
<trkpt lat="53.1475509" lon="18.1141436">
<ele>94</ele>
<time>2017-08-22T11:29:59Z</time>
</trkpt>
<trkpt lat="53.1475509" lon="18.1141436">
<ele>94</ele>
<time>2017-08-22T11:30:01Z</time>
</trkpt>
<trkpt lat="53.1475509" lon="18.1141436">
<ele>94</ele>
<time>2017-08-22T11:30:03Z</time>
</trkpt>
<trkpt lat="53.1475509" lon="18.1141436">
<ele>94</ele>
<time>2017-08-22T11:30:05Z</time>
</trkpt>
<trkpt lat="53.1475509" lon="18.1141436">
<ele>94</ele>
<time>2017-08-22T11:30:07Z</time>
</trkpt>
<trkpt lat="53.1475509" lon="18.1141436">
<ele>94</ele>
<time>2017-08-22T11:30:09Z</time>
</trkpt>
<trkpt lat="53.1475509" lon="18.1141436">
<ele>94</ele>
<time>2017-08-22T11:30:11Z</time>
</trkpt>
<trkpt lat="53.1475509" lon="18.1141436">
<ele>94</ele>
<time>2017-08-22T11:30:13Z</time>
</trkpt>
<trkpt lat="53.1475509" lon="18.1141436">
<ele>94</ele>
<time>2017-08-22T11:30:15Z</time>
</trkpt>
<trkpt lat="53.1475509" lon="18.1141436">
<ele>94</ele>
<time>2017-08-22T11:30:17Z</time>
</trkpt>
<trkpt lat="53.1475509" lon="18.1141436">
<ele>94</ele>
<time>2017-08-22T11:30:19Z</time>
</trkpt>
<trkpt lat="53.1475509" lon="18.1141436">
<ele>94</ele>
<time>2017-08-22T11:30:21Z</time>
</trkpt>
<trkpt lat="53.1475509" lon="18.1141436">
<ele>94</ele>
<time>2017-08-22T11:30:23Z</time>
</trkpt>
<trkpt lat="53.1475509" lon="18.1141436">
<ele>94</ele>
<time>2017-08-22T11:30:25Z</time>
</trkpt>
<trkpt lat="53.1475509" lon="18.1141436">
<ele>94</ele>
<time>2017-08-22T11:30:27Z</time>
</trkpt>
<trkpt lat="53.1475509" lon="18.1141436">
<ele>94</ele>
<time>2017-08-22T11:30:29Z</time>
</trkpt>
<trkpt lat="53.1475509" lon="18.1141436">
<ele>94</ele>
<time>2017-08-22T11:30:31Z</time>
</trkpt>
<trkpt lat="53.1475509" lon="18.1141436">
<ele>94</ele>
<time>2017-08-22T11:30:33Z</time>
</trkpt>
<trkpt lat="53.1475509" lon="18.1141436">
<ele>94</ele>
<time>2017-08-22T11:30:35Z</time>
</trkpt>
<trkpt lat="53.1475509" lon="18.1141436">
<ele>94</ele>
<time>2017-08-22T11:30:37Z</time>
</trkpt>
<trkpt lat="53.1475509" lon="18.1141436">
<ele>94</ele>
<time>2017-08-22T11:30:39Z</time>
</trkpt>
<trkpt lat="53.1475509" lon="18.1141436">
<ele>94</ele>
<time>2017-08-22T11:30:41Z</time>
</trkpt>
<trkpt lat="53.1475509" lon="18.1141436">
<ele>94</ele>
<time>2017-08-22T11:30:43Z</time>
</trkpt>
<trkpt lat="53.1475509" lon="18.1141436">
<ele>94</ele>
<time>2017-08-22T11:30:45Z</time>
</trkpt>
<trkpt lat="53.1475509" lon="18.1141436">
<ele>94</ele>
<time>2017-08-22T11:30:47Z</time>
</trkpt>
<trkpt lat="53.1475509" lon="18.1141436">
<ele>94</ele>
<time>2017-08-22T11:30:49Z</time>
</trkpt>
<trkpt lat="53.1475509" lon="18.1141436">
<ele>94</ele>
<time>2017-08-22T11:30:51Z</time>
</trkpt>
<trkpt lat="53.1475509" lon="18.1141436">
<ele>94</ele>
<time>2017-08-22T11:30:53Z</time>
</trkpt>
<trkpt lat="53.1475509" lon="18.1141436">
<ele>94</ele>
<time>2017-08-22T11:30:55Z</time>
</trkpt>
<trkpt lat="53.1475509" lon="18.1141436">
<ele>94</ele>
<time>2017-08-22T11:30:57Z</time>
</trkpt>
<trkpt lat="53.1475509" lon="18.1141436">
<ele>94</ele>
<time>2017-08-22T11:30:59Z</time>
</trkpt>
<trkpt lat="53.1475509" lon="18.1141436">
<ele>94</ele>
<time>2017-08-22T11:31:01Z</time>
</trkpt>
<trkpt lat="53.1475509" lon="18.1141436">
<ele>94</ele>
<time>2017-08-22T11:31:03Z</time>
</trkpt>
<trkpt lat="53.1475509" lon="18.1141436">
<ele>94</ele>
<time>2017-08-22T11:31:05Z</time>
</trkpt>
<trkpt lat="53.1475509" lon="18.1141436">
<ele>94</ele>
<time>2017-08-22T11:31:07Z</time>
</trkpt>
<trkpt lat="53.1475509" lon="18.1141436">
<ele>94</ele>
<time>2017-08-22T11:31:10Z</time>
</trkpt>
<trkpt lat="53.1475509" lon="18.1141436">
<ele>94</ele>
<time>2017-08-22T11:31:12Z</time>
</trkpt>
<trkpt lat="53.1475509" lon="18.1141436">
<ele>94</ele>
<time>2017-08-22T11:31:14Z</time>
</trkpt>
<trkpt lat="53.1475509" lon="18.1141436">
<ele>94</ele>
<time>2017-08-22T11:31:16Z</time>
</trkpt>
<trkpt lat="53.1475509" lon="18.1141436">
<ele>94</ele>
<time>2017-08-22T11:31:18Z</time>
</trkpt>
<trkpt lat="53.1475509" lon="18.1141436">
<ele>94</ele>
<time>2017-08-22T11:31:20Z</time>
</trkpt>
<trkpt lat="53.1475509" lon="18.1141436">
<ele>94</ele>
<time>2017-08-22T11:31:22Z</time>
</trkpt>
<trkpt lat="53.1475509" lon="18.1141436">
<ele>94</ele>
<time>2017-08-22T11:31:24Z</time>
</trkpt>
<trkpt lat="53.1475509" lon="18.1141436">
<ele>94</ele>
<time>2017-08-22T11:31:26Z</time>
</trkpt>
<trkpt lat="53.1475509" lon="18.1141436">
<ele>94</ele>
<time>2017-08-22T11:31:28Z</time>
</trkpt>
<trkpt lat="53.1475509" lon="18.1141436">
<ele>94</ele>
<time>2017-08-22T11:31:30Z</time>
</trkpt>
<trkpt lat="53.1475509" lon="18.1141436">
<ele>94</ele>
<time>2017-08-22T11:31:32Z</time>
</trkpt>
<trkpt lat="53.1475509" lon="18.1141436">
<ele>94</ele>
<time>2017-08-22T11:31:34Z</time>
</trkpt>
<trkpt lat="53.1475509" lon="18.1141436">
<ele>94</ele>
<time>2017-08-22T11:31:36Z</time>
</trkpt>
<trkpt lat="53.1475509" lon="18.1141436">
<ele>94</ele>
<time>2017-08-22T11:31:38Z</time>
</trkpt>
<trkpt lat="53.1475509" lon="18.1141436">
<ele>94</ele>
<time>2017-08-22T11:31:40Z</time>
</trkpt>
<trkpt lat="53.1475509" lon="18.1141436">
<ele>94</ele>
<time>2017-08-22T11:31:42Z</time>
</trkpt>
<trkpt lat="53.1475509" lon="18.1141436">
<ele>94</ele>
<time>2017-08-22T11:31:44Z</time>
</trkpt>
<trkpt lat="53.1475509" lon="18.1141436">
<ele>94</ele>
<time>2017-08-22T11:31:46Z</time>
</trkpt>
<trkpt lat="53.1475509" lon="18.1141436">
<ele>94</ele>
<time>2017-08-22T11:31:48Z</time>
</trkpt>
<trkpt lat="53.1475509" lon="18.1141436">
<ele>94</ele>
<time>2017-08-22T11:31:50Z</time>
</trkpt>
<trkpt lat="53.1475509" lon="18.1141436">
<ele>94</ele>
<time>2017-08-22T11:31:52Z</time>
</trkpt>
<trkpt lat="53.1475509" lon="18.1141436">
<ele>94</ele>
<time>2017-08-22T11:31:54Z</time>
</trkpt>
<trkpt lat="53.1475509" lon="18.1141436">
<ele>94</ele>
<time>2017-08-22T11:31:56Z</time>
</trkpt>
<trkpt lat="53.1475509" lon="18.1141436">
<ele>94</ele>
<time>2017-08-22T11:31:58Z</time>
</trkpt>
<trkpt lat="53.1475509" lon="18.1141436">
<ele>94</ele>
<time>2017-08-22T11:32:00Z</time>
</trkpt>
<trkpt lat="53.1475509" lon="18.1141436">
<ele>94</ele>
<time>2017-08-22T11:32:02Z</time>
</trkpt>
<trkpt lat="53.1475509" lon="18.1141436">
<ele>94</ele>
<time>2017-08-22T11:32:04Z</time>
</trkpt>
<trkpt lat="53.1475509" lon="18.1141436">
<ele>94</ele>
<time>2017-08-22T11:32:06Z</time>
</trkpt>
<trkpt lat="53.1475509" lon="18.1141436">
<ele>94</ele>
<time>2017-08-22T11:32:08Z</time>
</trkpt>
<trkpt lat="53.1475509" lon="18.1141436">
<ele>94</ele>
<time>2017-08-22T11:32:10Z</time>
</trkpt>
<trkpt lat="53.1475509" lon="18.1141436">
<ele>94</ele>
<time>2017-08-22T11:32:12Z</time>
</trkpt>
<trkpt lat="53.1475509" lon="18.1141436">
<ele>94</ele>
<time>2017-08-22T11:32:14Z</time>
</trkpt>
<trkpt lat="53.1475509" lon="18.1141436">
<ele>94</ele>
<time>2017-08-22T11:32:16Z</time>
</trkpt>
<trkpt lat="53.1475509" lon="18.1141436">
<ele>94</ele>
<time>2017-08-22T11:32:18Z</time>
</trkpt>
<trkpt lat="53.1475509" lon="18.1141436">
<ele>94</ele>
<time>2017-08-22T11:32:20Z</time>
</trkpt>
<trkpt lat="53.1475509" lon="18.1141436">
<ele>94</ele>
<time>2017-08-22T11:32:22Z</time>
</trkpt>
<trkpt lat="53.1475509" lon="18.1141436">
<ele>94</ele>
<time>2017-08-22T11:32:24Z</time>
</trkpt>
<trkpt lat="53.1475509" lon="18.1141436">
<ele>94</ele>
<time>2017-08-22T11:32:26Z</time>
</trkpt>
<trkpt lat="53.1475509" lon="18.1141436">
<ele>94</ele>
<time>2017-08-22T11:32:28Z</time>
</trkpt>
<trkpt lat="53.1475509" lon="18.1141436">
<ele>94</ele>
<time>2017-08-22T11:32:30Z</time>
</trkpt>
<trkpt lat="53.1475509" lon="18.1141436">
<ele>94</ele>
<time>2017-08-22T11:32:32Z</time>
</trkpt>
<trkpt lat="53.1475509" lon="18.1141436">
<ele>94</ele>
<time>2017-08-22T11:32:34Z</time>
</trkpt>
<trkpt lat="53.1475509" lon="18.1141436">
<ele>94</ele>
<time>2017-08-22T11:32:36Z</time>
</trkpt>
<trkpt lat="53.1475509" lon="18.1141436">
<ele>94</ele>
<time>2017-08-22T11:32:38Z</time>
</trkpt>
<trkpt lat="53.1475509" lon="18.1141436">
<ele>94</ele>
<time>2017-08-22T11:32:40Z</time>
</trkpt>
<trkpt lat="53.1475509" lon="18.1141436">
<ele>94</ele>
<time>2017-08-22T11:32:42Z</time>
</trkpt>
<trkpt lat="53.1475509" lon="18.1141436">
<ele>94</ele>
<time>2017-08-22T11:32:44Z</time>
</trkpt>
<trkpt lat="53.1475509" lon="18.1141436">
<ele>94</ele>
<time>2017-08-22T11:32:46Z</time>
</trkpt>
<trkpt lat="53.1475509" lon="18.1141436">
<ele>94</ele>
<time>2017-08-22T11:32:48Z</time>
</trkpt>
<trkpt lat="53.1475509" lon="18.1141436">
<ele>94</ele>
<time>2017-08-22T11:32:50Z</time>
</trkpt>
<trkpt lat="53.1475509" lon="18.1141436">
<ele>94</ele>
<time>2017-08-22T11:32:52Z</time>
</trkpt>
<trkpt lat="53.1475509" lon="18.1141436">
<ele>94</ele>
<time>2017-08-22T11:32:54Z</time>
</trkpt>
<trkpt lat="53.1475509" lon="18.1141436">
<ele>94</ele>
<time>2017-08-22T11:32:56Z</time>
</trkpt>
<trkpt lat="53.1475509" lon="18.1141436">
<ele>94</ele>
<time>2017-08-22T11:32:58Z</time>
</trkpt>
<trkpt lat="53.1475509" lon="18.1141436">
<ele>94</ele>
<time>2017-08-22T11:33:00Z</time>
</trkpt>
<trkpt lat="53.1475509" lon="18.1141436">
<ele>94</ele>
<time>2017-08-22T11:33:02Z</time>
</trkpt>
<trkpt lat="53.1475509" lon="18.1141436">
<ele>94</ele>
<time>2017-08-22T11:33:04Z</time>
</trkpt>
<trkpt lat="53.1475509" lon="18.1141436">
<ele>94</ele>
<time>2017-08-22T11:33:06Z</time>
</trkpt>
<trkpt lat="53.1475509" lon="18.1141436">
<ele>94</ele>
<time>2017-08-22T11:33:08Z</time>
</trkpt>
<trkpt lat="53.1475509" lon="18.1141436">
<ele>94</ele>
<time>2017-08-22T11:33:10Z</time>
</trkpt>
<trkpt lat="53.1475509" lon="18.1141436">
<ele>94</ele>
<time>2017-08-22T11:33:12Z</time>
</trkpt>
<trkpt lat="53.1475509" lon="18.1141436">
<ele>94</ele>
<time>2017-08-22T11:33:14Z</time>
</trkpt>
<trkpt lat="53.1475509" lon="18.1141436">
<ele>94</ele>
<time>2017-08-22T11:33:16Z</time>
</trkpt>
<trkpt lat="53.1475509" lon="18.1141436">
<ele>94</ele>
<time>2017-08-22T11:33:18Z</time>
</trkpt>
<trkpt lat="53.1475509" lon="18.1141436">
<ele>94</ele>
<time>2017-08-22T11:33:20Z</time>
</trkpt>
<trkpt lat="53.1475509" lon="18.1141436">
<ele>94</ele>
<time>2017-08-22T11:33:22Z</time>
</trkpt>
<trkpt lat="53.1475509" lon="18.1141436">
<ele>94</ele>
<time>2017-08-22T11:33:24Z</time>
</trkpt>
<trkpt lat="53.1475509" lon="18.1141436">
<ele>94</ele>
<time>2017-08-22T11:33:26Z</time>
</trkpt>
<trkpt lat="53.1475509" lon="18.1141436">
<ele>94</ele>
<time>2017-08-22T11:33:28Z</time>
</trkpt>
<trkpt lat="53.1475509" lon="18.1141436">
<ele>94</ele>
<time>2017-08-22T11:33:30Z</time>
</trkpt>
<trkpt lat="53.1475509" lon="18.1141436">
<ele>94</ele>
<time>2017-08-22T11:33:32Z</time>
</trkpt>
<trkpt lat="53.1475509" lon="18.1141436">
<ele>94</ele>
<time>2017-08-22T11:33:34Z</time>
</trkpt>
<trkpt lat="53.1475509" lon="18.1141436">
<ele>94</ele>
<time>2017-08-22T11:33:36Z</time>
</trkpt>
<trkpt lat="53.1475509" lon="18.1141436">
<ele>94</ele>
<time>2017-08-22T11:33:38Z</time>
</trkpt>
<trkpt lat="53.1475509" lon="18.1141436">
<ele>94</ele>
<time>2017-08-22T11:33:40Z</time>
</trkpt>
<trkpt lat="53.1475509" lon="18.1141436">
<ele>94</ele>
<time>2017-08-22T11:33:42Z</time>
</trkpt>
<trkpt lat="53.1475509" lon="18.1141436">
<ele>94</ele>
<time>2017-08-22T11:33:44Z</time>
</trkpt>
<trkpt lat="53.1475509" lon="18.1141436">
<ele>94</ele>
<time>2017-08-22T11:33:46Z</time>
</trkpt>
<trkpt lat="53.1475509" lon="18.1141436">
<ele>94</ele>
<time>2017-08-22T11:33:48Z</time>
</trkpt>
<trkpt lat="53.1475509" lon="18.1141436">
<ele>94</ele>
<time>2017-08-22T11:33:50Z</time>
</trkpt>
<trkpt lat="53.1475509" lon="18.1141436">
<ele>94</ele>
<time>2017-08-22T11:33:52Z</time>
</trkpt>
<trkpt lat="53.1475509" lon="18.1141436">
<ele>94</ele>
<time>2017-08-22T11:33:54Z</time>
</trkpt>
<trkpt lat="53.1475509" lon="18.1141436">
<ele>94</ele>
<time>2017-08-22T11:33:56Z</time>
</trkpt>
<trkpt lat="53.1475509" lon="18.1141436">
<ele>94</ele>
<time>2017-08-22T11:33:58Z</time>
</trkpt>
<trkpt lat="53.1475509" lon="18.1141436">
<ele>94</ele>
<time>2017-08-22T11:34:00Z</time>
</trkpt>
<trkpt lat="53.1475509" lon="18.1141436">
<ele>94</ele>
<time>2017-08-22T11:34:02Z</time>
</trkpt>
<trkpt lat="53.1475509" lon="18.1141436">
<ele>94</ele>
<time>2017-08-22T11:34:04Z</time>
</trkpt>
<trkpt lat="53.1475509" lon="18.1141436">
<ele>94</ele>
<time>2017-08-22T11:34:06Z</time>
</trkpt>
<trkpt lat="53.1475509" lon="18.1141436">
<ele>94</ele>
<time>2017-08-22T11:34:08Z</time>
</trkpt>
<trkpt lat="53.1475509" lon="18.1141436">
<ele>94</ele>
<time>2017-08-22T11:34:10Z</time>
</trkpt>
<trkpt lat="53.1475509" lon="18.1141436">
<ele>94</ele>
<time>2017-08-22T11:34:12Z</time>
</trkpt>
<trkpt lat="53.1475509" lon="18.1141436">
<ele>94</ele>
<time>2017-08-22T11:34:14Z</time>
</trkpt>
<trkpt lat="53.1475509" lon="18.1141436">
<ele>94</ele>
<time>2017-08-22T11:34:16Z</time>
</trkpt>
<trkpt lat="53.1475509" lon="18.1141436">
<ele>94</ele>
<time>2017-08-22T11:34:18Z</time>
</trkpt>
<trkpt lat="53.1475509" lon="18.1141436">
<ele>94</ele>
<time>2017-08-22T11:34:20Z</time>
</trkpt>
<trkpt lat="53.1475509" lon="18.1141436">
<ele>94</ele>
<time>2017-08-22T11:34:22Z</time>
</trkpt>
<trkpt lat="53.1475509" lon="18.1141436">
<ele>94</ele>
<time>2017-08-22T11:34:24Z</time>
</trkpt>
<trkpt lat="53.1475509" lon="18.1141436">
<ele>94</ele>
<time>2017-08-22T11:34:26Z</time>
</trkpt>
<trkpt lat="53.1475509" lon="18.1141436">
<ele>94</ele>
<time>2017-08-22T11:34:28Z</time>
</trkpt>
<trkpt lat="53.1475509" lon="18.1141436">
<ele>94</ele>
<time>2017-08-22T11:34:30Z</time>
</trkpt>
<trkpt lat="53.1475509" lon="18.1141436">
<ele>94</ele>
<time>2017-08-22T11:34:32Z</time>
</trkpt>
<trkpt lat="53.1475509" lon="18.1141436">
<ele>94</ele>
<time>2017-08-22T11:34:34Z</time>
</trkpt>
<trkpt lat="53.1475509" lon="18.1141436">
<ele>94</ele>
<time>2017-08-22T11:34:36Z</time>
</trkpt>
<trkpt lat="53.1475509" lon="18.1141436">
<ele>94</ele>
<time>2017-08-22T11:34:38Z</time>
</trkpt>
<trkpt lat="53.1475509" lon="18.1141436">
<ele>94</ele>
<time>2017-08-22T11:34:40Z</time>
</trkpt>
<trkpt lat="53.1475509" lon="18.1141436">
<ele>94</ele>
<time>2017-08-22T11:34:42Z</time>
</trkpt>
<trkpt lat="53.1475509" lon="18.1141436">
<ele>94</ele>
<time>2017-08-22T11:34:44Z</time>
</trkpt>
<trkpt lat="53.1475509" lon="18.1141436">
<ele>94</ele>
<time>2017-08-22T11:34:46Z</time>
</trkpt>
<trkpt lat="53.1475509" lon="18.1141436">
<ele>94</ele>
<time>2017-08-22T11:34:48Z</time>
</trkpt>
<trkpt lat="53.1475509" lon="18.1141436">
<ele>94</ele>
<time>2017-08-22T11:34:50Z</time>
</trkpt>
<trkpt lat="53.1475509" lon="18.1141436">
<ele>94</ele>
<time>2017-08-22T11:34:52Z</time>
</trkpt>
<trkpt lat="53.1475509" lon="18.1141436">
<ele>94</ele>
<time>2017-08-22T11:34:54Z</time>
</trkpt>
<trkpt lat="53.1475509" lon="18.1141436">
<ele>94</ele>
<time>2017-08-22T11:34:56Z</time>
</trkpt>
<trkpt lat="53.1475509" lon="18.1141436">
<ele>94</ele>
<time>2017-08-22T11:34:58Z</time>
</trkpt>
<trkpt lat="53.1475509" lon="18.1141436">
<ele>94</ele>
<time>2017-08-22T11:35:00Z</time>
</trkpt>
<trkpt lat="53.1475509" lon="18.1141436">
<ele>94</ele>
<time>2017-08-22T11:35:02Z</time>
</trkpt>
<trkpt lat="53.1475509" lon="18.1141436">
<ele>94</ele>
<time>2017-08-22T11:35:04Z</time>
</trkpt>
<trkpt lat="53.1475509" lon="18.1141436">
<ele>94</ele>
<time>2017-08-22T11:35:06Z</time>
</trkpt>
<trkpt lat="53.1475509" lon="18.1141436">
<ele>94</ele>
<time>2017-08-22T11:35:08Z</time>
</trkpt>
<trkpt lat="53.1475509" lon="18.1141436">
<ele>94</ele>
<time>2017-08-22T11:35:10Z</time>
</trkpt>
<trkpt lat="53.1475509" lon="18.1141436">
<ele>94</ele>
<time>2017-08-22T11:35:12Z</time>
</trkpt>
<trkpt lat="53.1475509" lon="18.1141436">
<ele>94</ele>
<time>2017-08-22T11:35:14Z</time>
</trkpt>
<trkpt lat="53.1475509" lon="18.1141436">
<ele>94</ele>
<time>2017-08-22T11:35:16Z</time>
</trkpt>
<trkpt lat="53.1475509" lon="18.1141436">
<ele>94</ele>
<time>2017-08-22T11:35:18Z</time>
</trkpt>
<trkpt lat="53.1475509" lon="18.1141436">
<ele>94</ele>
<time>2017-08-22T11:35:20Z</time>
</trkpt>
<trkpt lat="53.1475509" lon="18.1141436">
<ele>94</ele>
<time>2017-08-22T11:35:22Z</time>
</trkpt>
<trkpt lat="53.1475509" lon="18.1141436">
<ele>94</ele>
<time>2017-08-22T11:35:24Z</time>
</trkpt>
<trkpt lat="53.1475509" lon="18.1141436">
<ele>94</ele>
<time>2017-08-22T11:35:26Z</time>
</trkpt>
<trkpt lat="53.1475509" lon="18.1141436">
<ele>94</ele>
<time>2017-08-22T11:35:28Z</time>
</trkpt>
<trkpt lat="53.1475509" lon="18.1141436">
<ele>94</ele>
<time>2017-08-22T11:35:30Z</time>
</trkpt>
<trkpt lat="53.1475509" lon="18.1141436">
<ele>94</ele>
<time>2017-08-22T11:35:32Z</time>
</trkpt>
<trkpt lat="53.1475509" lon="18.1141436">
<ele>94</ele>
<time>2017-08-22T11:35:34Z</time>
</trkpt>
<trkpt lat="53.1475509" lon="18.1141436">
<ele>94</ele>
<time>2017-08-22T11:35:36Z</time>
</trkpt>
<trkpt lat="53.1475509" lon="18.1141436">
<ele>94</ele>
<time>2017-08-22T11:35:38Z</time>
</trkpt>
<trkpt lat="53.1475509" lon="18.1141436">
<ele>94</ele>
<time>2017-08-22T11:35:40Z</time>
</trkpt>
<trkpt lat="53.1475509" lon="18.1141436">
<ele>94</ele>
<time>2017-08-22T11:35:42Z</time>
</trkpt>
<trkpt lat="53.1475509" lon="18.1141436">
<ele>94</ele>
<time>2017-08-22T11:35:44Z</time>
</trkpt>
<trkpt lat="53.1475509" lon="18.1141436">
<ele>94</ele>
<time>2017-08-22T11:35:46Z</time>
</trkpt>
<trkpt lat="53.1475509" lon="18.1141436">
<ele>94</ele>
<time>2017-08-22T11:35:48Z</time>
</trkpt>
<trkpt lat="53.1475509" lon="18.1141436">
<ele>94</ele>
<time>2017-08-22T11:35:50Z</time>
</trkpt>
<trkpt lat="53.1475509" lon="18.1141436">
<ele>94</ele>
<time>2017-08-22T11:35:52Z</time>
</trkpt>
<trkpt lat="53.1475509" lon="18.1141436">
<ele>94</ele>
<time>2017-08-22T11:35:54Z</time>
</trkpt>
<trkpt lat="53.1475509" lon="18.1141436">
<ele>94</ele>
<time>2017-08-22T11:35:56Z</time>
</trkpt>
<trkpt lat="53.1475509" lon="18.1141436">
<ele>94</ele>
<time>2017-08-22T11:35:58Z</time>
</trkpt>
<trkpt lat="53.1475509" lon="18.1141436">
<ele>94</ele>
<time>2017-08-22T11:36:00Z</time>
</trkpt>
<trkpt lat="53.1475509" lon="18.1141436">
<ele>94</ele>
<time>2017-08-22T11:36:02Z</time>
</trkpt>
<trkpt lat="53.1475509" lon="18.1141436">
<ele>94</ele>
<time>2017-08-22T11:36:04Z</time>
</trkpt>
<trkpt lat="53.1475509" lon="18.1141436">
<ele>94</ele>
<time>2017-08-22T11:36:06Z</time>
</trkpt>
<trkpt lat="53.1475509" lon="18.1141436">
<ele>94</ele>
<time>2017-08-22T11:36:08Z</time>
</trkpt>
<trkpt lat="53.1475509" lon="18.1141436">
<ele>94</ele>
<time>2017-08-22T11:36:10Z</time>
</trkpt>
<trkpt lat="53.1475509" lon="18.1141436">
<ele>94</ele>
<time>2017-08-22T11:36:12Z</time>
</trkpt>
<trkpt lat="53.1475509" lon="18.1141436">
<ele>94</ele>
<time>2017-08-22T11:36:14Z</time>
</trkpt>
<trkpt lat="53.1475509" lon="18.1141436">
<ele>94</ele>
<time>2017-08-22T11:36:16Z</time>
</trkpt>
<trkpt lat="53.1475509" lon="18.1141436">
<ele>94</ele>
<time>2017-08-22T11:36:18Z</time>
</trkpt>
<trkpt lat="53.1475509" lon="18.1141436">
<ele>94</ele>
<time>2017-08-22T11:36:20Z</time>
</trkpt>
<trkpt lat="53.1475509" lon="18.1141436">
<ele>94</ele>
<time>2017-08-22T11:36:22Z</time>
</trkpt>
<trkpt lat="53.1475509" lon="18.1141436">
<ele>94</ele>
<time>2017-08-22T11:36:24Z</time>
</trkpt>
<trkpt lat="53.1475509" lon="18.1141436">
<ele>94</ele>
<time>2017-08-22T11:36:26Z</time>
</trkpt>
<trkpt lat="53.1475509" lon="18.1141436">
<ele>94</ele>
<time>2017-08-22T11:36:28Z</time>
</trkpt>
<trkpt lat="53.1475509" lon="18.1141436">
<ele>94</ele>
<time>2017-08-22T11:36:30Z</time>
</trkpt>
<trkpt lat="53.1475509" lon="18.1141436">
<ele>94</ele>
<time>2017-08-22T11:36:32Z</time>
</trkpt>
<trkpt lat="53.1475509" lon="18.1141436">
<ele>94</ele>
<time>2017-08-22T11:36:34Z</time>
</trkpt>
<trkpt lat="53.1475509" lon="18.1141436">
<ele>94</ele>
<time>2017-08-22T11:36:36Z</time>
</trkpt>
<trkpt lat="53.1475509" lon="18.1141436">
<ele>94</ele>
<time>2017-08-22T11:36:38Z</time>
</trkpt>
<trkpt lat="53.1475509" lon="18.1141436">
<ele>94</ele>
<time>2017-08-22T11:36:40Z</time>
</trkpt>
<trkpt lat="53.1475509" lon="18.1141436">
<ele>94</ele>
<time>2017-08-22T11:36:42Z</time>
</trkpt>
<trkpt lat="53.1475509" lon="18.1141436">
<ele>94</ele>
<time>2017-08-22T11:36:44Z</time>
</trkpt>
<trkpt lat="53.1475509" lon="18.1141436">
<ele>94</ele>
<time>2017-08-22T11:36:46Z</time>
</trkpt>
<trkpt lat="53.1475509" lon="18.1141436">
<ele>94</ele>
<time>2017-08-22T11:36:48Z</time>
</trkpt>
<trkpt lat="53.1475509" lon="18.1141436">
<ele>94</ele>
<time>2017-08-22T11:36:50Z</time>
</trkpt>
<trkpt lat="53.1475509" lon="18.1141436">
<ele>94</ele>
<time>2017-08-22T11:36:52Z</time>
</trkpt>
<trkpt lat="53.1475509" lon="18.1141436">
<ele>94</ele>
<time>2017-08-22T11:36:54Z</time>
</trkpt>
<trkpt lat="53.1475509" lon="18.1141436">
<ele>94</ele>
<time>2017-08-22T11:36:56Z</time>
</trkpt>
<trkpt lat="53.1475509" lon="18.1141436">
<ele>94</ele>
<time>2017-08-22T11:36:58Z</time>
</trkpt>
<trkpt lat="53.1475509" lon="18.1141436">
<ele>94</ele>
<time>2017-08-22T11:37:00Z</time>
</trkpt>
<trkpt lat="53.1475509" lon="18.1141436">
<ele>94</ele>
<time>2017-08-22T11:37:02Z</time>
</trkpt>
<trkpt lat="53.1475509" lon="18.1141436">
<ele>94</ele>
<time>2017-08-22T11:37:04Z</time>
</trkpt>
<trkpt lat="53.1475509" lon="18.1141436">
<ele>94</ele>
<time>2017-08-22T11:37:06Z</time>
</trkpt>
<trkpt lat="53.1475509" lon="18.1141436">
<ele>94</ele>
<time>2017-08-22T11:37:08Z</time>
</trkpt>
<trkpt lat="53.1475509" lon="18.1141436">
<ele>94</ele>
<time>2017-08-22T11:37:10Z</time>
</trkpt>
<trkpt lat="53.1475509" lon="18.1141436">
<ele>94</ele>
<time>2017-08-22T11:37:12Z</time>
</trkpt>
<trkpt lat="53.1475509" lon="18.1141436">
<ele>94</ele>
<time>2017-08-22T11:37:14Z</time>
</trkpt>
<trkpt lat="53.1475509" lon="18.1141436">
<ele>94</ele>
<time>2017-08-22T11:37:16Z</time>
</trkpt>
<trkpt lat="53.1475509" lon="18.1141436">
<ele>94</ele>
<time>2017-08-22T11:37:18Z</time>
</trkpt>
<trkpt lat="53.1475509" lon="18.1141436">
<ele>94</ele>
<time>2017-08-22T11:37:20Z</time>
</trkpt>
<trkpt lat="53.1475509" lon="18.1141436">
<ele>94</ele>
<time>2017-08-22T11:37:22Z</time>
</trkpt>
<trkpt lat="53.1475509" lon="18.1141436">
<ele>94</ele>
<time>2017-08-22T11:37:24Z</time>
</trkpt>
<trkpt lat="53.1475509" lon="18.1141436">
<ele>94</ele>
<time>2017-08-22T11:37:26Z</time>
</trkpt>
<trkpt lat="53.1475509" lon="18.1141436">
<ele>94</ele>
<time>2017-08-22T11:37:28Z</time>
</trkpt>
<trkpt lat="53.1475509" lon="18.1141436">
<ele>94</ele>
<time>2017-08-22T11:37:30Z</time>
</trkpt>
<trkpt lat="53.1475509" lon="18.1141436">
<ele>94</ele>
<time>2017-08-22T11:37:32Z</time>
</trkpt>
<trkpt lat="53.1475509" lon="18.1141436">
<ele>94</ele>
<time>2017-08-22T11:37:36Z</time>
</trkpt>
<trkpt lat="53.1475509" lon="18.1141436">
<ele>94</ele>
<time>2017-08-22T11:37:38Z</time>
</trkpt>
<trkpt lat="53.1475509" lon="18.1141436">
<ele>94</ele>
<time>2017-08-22T11:37:40Z</time>
</trkpt>
<trkpt lat="53.1475509" lon="18.1141436">
<ele>94</ele>
<time>2017-08-22T11:37:42Z</time>
</trkpt>
<trkpt lat="53.1475509" lon="18.1141436">
<ele>94</ele>
<time>2017-08-22T11:37:44Z</time>
</trkpt>
<trkpt lat="53.1475509" lon="18.1141436">
<ele>94</ele>
<time>2017-08-22T11:37:46Z</time>
</trkpt>
<trkpt lat="53.1475509" lon="18.1141436">
<ele>94</ele>
<time>2017-08-22T11:37:48Z</time>
</trkpt>
<trkpt lat="53.1475509" lon="18.1141436">
<ele>94</ele>
<time>2017-08-22T11:37:50Z</time>
</trkpt>
<trkpt lat="53.1475509" lon="18.1141436">
<ele>94</ele>
<time>2017-08-22T11:37:52Z</time>
</trkpt>
<trkpt lat="53.1475509" lon="18.1141436">
<ele>94</ele>
<time>2017-08-22T11:37:54Z</time>
</trkpt>
<trkpt lat="53.1475509" lon="18.1141436">
<ele>94</ele>
<time>2017-08-22T11:37:56Z</time>
</trkpt>
<trkpt lat="53.1475509" lon="18.1141436">
<ele>94</ele>
<time>2017-08-22T11:37:58Z</time>
</trkpt>
<trkpt lat="53.1475509" lon="18.1141436">
<ele>94</ele>
<time>2017-08-22T11:38:00Z</time>
</trkpt>
<trkpt lat="53.1475509" lon="18.1141436">
<ele>94</ele>
<time>2017-08-22T11:38:02Z</time>
</trkpt>
<trkpt lat="53.1475509" lon="18.1141436">
<ele>94</ele>
<time>2017-08-22T11:38:04Z</time>
</trkpt>
<trkpt lat="53.1475509" lon="18.1141436">
<ele>94</ele>
<time>2017-08-22T11:38:06Z</time>
</trkpt>
<trkpt lat="53.1475509" lon="18.1141436">
<ele>94</ele>
<time>2017-08-22T11:38:08Z</time>
</trkpt>
<trkpt lat="53.1475509" lon="18.1141436">
<ele>94</ele>
<time>2017-08-22T11:38:10Z</time>
</trkpt>
<trkpt lat="53.1475509" lon="18.1141436">
<ele>94</ele>
<time>2017-08-22T11:38:12Z</time>
</trkpt>
<trkpt lat="53.1475509" lon="18.1141436">
<ele>94</ele>
<time>2017-08-22T11:38:14Z</time>
</trkpt>
<trkpt lat="53.1475509" lon="18.1141436">
<ele>94</ele>
<time>2017-08-22T11:38:16Z</time>
</trkpt>
<trkpt lat="53.1475509" lon="18.1141436">
<ele>94</ele>
<time>2017-08-22T11:38:18Z</time>
</trkpt>
<trkpt lat="53.1475509" lon="18.1141436">
<ele>94</ele>
<time>2017-08-22T11:38:20Z</time>
</trkpt>
<trkpt lat="53.1475509" lon="18.1141436">
<ele>94</ele>
<time>2017-08-22T11:38:22Z</time>
</trkpt>
<trkpt lat="53.1475509" lon="18.1141436">
<ele>94</ele>
<time>2017-08-22T11:38:24Z</time>
</trkpt>
<trkpt lat="53.1475509" lon="18.1141436">
<ele>94</ele>
<time>2017-08-22T11:38:26Z</time>
</trkpt>
<trkpt lat="53.1475509" lon="18.1141436">
<ele>94</ele>
<time>2017-08-22T11:38:28Z</time>
</trkpt>
<trkpt lat="53.1475509" lon="18.1141436">
<ele>94</ele>
<time>2017-08-22T11:38:30Z</time>
</trkpt>
<trkpt lat="53.1475509" lon="18.1141436">
<ele>94</ele>
<time>2017-08-22T11:38:32Z</time>
</trkpt>
<trkpt lat="53.1475509" lon="18.1141436">
<ele>94</ele>
<time>2017-08-22T11:38:34Z</time>
</trkpt>
<trkpt lat="53.1475509" lon="18.1141436">
<ele>94</ele>
<time>2017-08-22T11:38:36Z</time>
</trkpt>
<trkpt lat="53.1475509" lon="18.1141436">
<ele>94</ele>
<time>2017-08-22T11:38:38Z</time>
</trkpt>
<trkpt lat="53.1475509" lon="18.1141436">
<ele>94</ele>
<time>2017-08-22T11:38:40Z</time>
</trkpt>
<trkpt lat="53.1475509" lon="18.1141436">
<ele>94</ele>
<time>2017-08-22T11:38:42Z</time>
</trkpt>
<trkpt lat="53.1475509" lon="18.1141436">
<ele>94</ele>
<time>2017-08-22T11:38:44Z</time>
</trkpt>
<trkpt lat="53.1475509" lon="18.1141436">
<ele>94</ele>
<time>2017-08-22T11:38:46Z</time>
</trkpt>
<trkpt lat="53.1475509" lon="18.1141436">
<ele>94</ele>
<time>2017-08-22T11:38:48Z</time>
</trkpt>
<trkpt lat="53.1475509" lon="18.1141436">
<ele>94</ele>
<time>2017-08-22T11:38:50Z</time>
</trkpt>
<trkpt lat="53.1475509" lon="18.1141436">
<ele>94</ele>
<time>2017-08-22T11:38:52Z</time>
</trkpt>
<trkpt lat="53.1475509" lon="18.1141436">
<ele>94</ele>
<time>2017-08-22T11:38:54Z</time>
</trkpt>
<trkpt lat="53.1475509" lon="18.1141436">
<ele>94</ele>
<time>2017-08-22T11:38:56Z</time>
</trkpt>
<trkpt lat="53.1475509" lon="18.1141436">
<ele>94</ele>
<time>2017-08-22T11:38:58Z</time>
</trkpt>
<trkpt lat="53.1475509" lon="18.1141436">
<ele>94</ele>
<time>2017-08-22T11:39:00Z</time>
</trkpt>
<trkpt lat="53.1475509" lon="18.1141436">
<ele>94</ele>
<time>2017-08-22T11:39:02Z</time>
</trkpt>
<trkpt lat="53.1475509" lon="18.1141436">
<ele>94</ele>
<time>2017-08-22T11:39:04Z</time>
</trkpt>
<trkpt lat="53.1475509" lon="18.1141436">
<ele>94</ele>
<time>2017-08-22T11:39:06Z</time>
</trkpt>
<trkpt lat="53.1475509" lon="18.1141436">
<ele>94</ele>
<time>2017-08-22T11:39:08Z</time>
</trkpt>
<trkpt lat="53.1475509" lon="18.1141436">
<ele>94</ele>
<time>2017-08-22T11:39:10Z</time>
</trkpt>
<trkpt lat="53.1475509" lon="18.1141436">
<ele>94</ele>
<time>2017-08-22T11:39:12Z</time>
</trkpt>
<trkpt lat="53.1475509" lon="18.1141436">
<ele>94</ele>
<time>2017-08-22T11:39:14Z</time>
</trkpt>
<trkpt lat="53.1475509" lon="18.1141436">
<ele>94</ele>
<time>2017-08-22T11:39:16Z</time>
</trkpt>
<trkpt lat="53.1475509" lon="18.1141436">
<ele>94</ele>
<time>2017-08-22T11:39:18Z</time>
</trkpt>
<trkpt lat="53.1475509" lon="18.1141436">
<ele>94</ele>
<time>2017-08-22T11:39:20Z</time>
</trkpt>
<trkpt lat="53.1475509" lon="18.1141436">
<ele>94</ele>
<time>2017-08-22T11:39:22Z</time>
</trkpt>
<trkpt lat="53.1475509" lon="18.1141436">
<ele>94</ele>
<time>2017-08-22T11:39:24Z</time>
</trkpt>
<trkpt lat="53.1475509" lon="18.1141436">
<ele>94</ele>
<time>2017-08-22T11:39:26Z</time>
</trkpt>
<trkpt lat="53.1475509" lon="18.1141436">
<ele>94</ele>
<time>2017-08-22T11:39:28Z</time>
</trkpt>
<trkpt lat="53.1475509" lon="18.1141436">
<ele>94</ele>
<time>2017-08-22T11:39:30Z</time>
</trkpt>
<trkpt lat="53.1475509" lon="18.1141436">
<ele>94</ele>
<time>2017-08-22T11:39:32Z</time>
</trkpt>
<trkpt lat="53.1475509" lon="18.1141436">
<ele>94</ele>
<time>2017-08-22T11:39:34Z</time>
</trkpt>
<trkpt lat="53.1475509" lon="18.1141436">
<ele>94</ele>
<time>2017-08-22T11:39:36Z</time>
</trkpt>
<trkpt lat="53.1475509" lon="18.1141436">
<ele>94</ele>
<time>2017-08-22T11:39:38Z</time>
</trkpt>
<trkpt lat="53.1475509" lon="18.1141436">
<ele>94</ele>
<time>2017-08-22T11:39:40Z</time>
</trkpt>
<trkpt lat="53.1475509" lon="18.1141436">
<ele>94</ele>
<time>2017-08-22T11:39:42Z</time>
</trkpt>
<trkpt lat="53.1475509" lon="18.1141436">
<ele>94</ele>
<time>2017-08-22T11:39:44Z</time>
</trkpt>
<trkpt lat="53.1475509" lon="18.1141436">
<ele>94</ele>
<time>2017-08-22T11:39:46Z</time>
</trkpt>
<trkpt lat="53.1475509" lon="18.1141436">
<ele>94</ele>
<time>2017-08-22T11:39:48Z</time>
</trkpt>
<trkpt lat="53.1475509" lon="18.1141436">
<ele>94</ele>
<time>2017-08-22T11:39:50Z</time>
</trkpt>
<trkpt lat="53.1475509" lon="18.1141436">
<ele>94</ele>
<time>2017-08-22T11:39:52Z</time>
</trkpt>
<trkpt lat="53.1475509" lon="18.1141436">
<ele>94</ele>
<time>2017-08-22T11:39:54Z</time>
</trkpt>
<trkpt lat="53.1475509" lon="18.1141436">
<ele>94</ele>
<time>2017-08-22T11:39:56Z</time>
</trkpt>
<trkpt lat="53.1475509" lon="18.1141436">
<ele>94</ele>
<time>2017-08-22T11:39:58Z</time>
</trkpt>
<trkpt lat="53.1475509" lon="18.1141436">
<ele>94</ele>
<time>2017-08-22T11:40:00Z</time>
</trkpt>
<trkpt lat="53.1475509" lon="18.1141436">
<ele>94</ele>
<time>2017-08-22T11:40:02Z</time>
</trkpt>
<trkpt lat="53.1475509" lon="18.1141436">
<ele>94</ele>
<time>2017-08-22T11:40:04Z</time>
</trkpt>
<trkpt lat="53.1475509" lon="18.1141436">
<ele>94</ele>
<time>2017-08-22T11:40:06Z</time>
</trkpt>
<trkpt lat="53.1475509" lon="18.1141436">
<ele>94</ele>
<time>2017-08-22T11:40:08Z</time>
</trkpt>
<trkpt lat="53.1475509" lon="18.1141436">
<ele>94</ele>
<time>2017-08-22T11:40:10Z</time>
</trkpt>
<trkpt lat="53.1475509" lon="18.1141436">
<ele>94</ele>
<time>2017-08-22T11:40:12Z</time>
</trkpt>
<trkpt lat="53.1475509" lon="18.1141436">
<ele>94</ele>
<time>2017-08-22T11:40:14Z</time>
</trkpt>
<trkpt lat="53.1475509" lon="18.1141436">
<ele>94</ele>
<time>2017-08-22T11:40:16Z</time>
</trkpt>
<trkpt lat="53.1475509" lon="18.1141436">
<ele>94</ele>
<time>2017-08-22T11:40:18Z</time>
</trkpt>
<trkpt lat="53.1475509" lon="18.1141436">
<ele>94</ele>
<time>2017-08-22T11:40:20Z</time>
</trkpt>
<trkpt lat="53.1475509" lon="18.1141436">
<ele>94</ele>
<time>2017-08-22T11:40:22Z</time>
</trkpt>
<trkpt lat="53.1475509" lon="18.1141436">
<ele>94</ele>
<time>2017-08-22T11:40:24Z</time>
</trkpt>
<trkpt lat="53.1475509" lon="18.1141436">
<ele>94</ele>
<time>2017-08-22T11:40:27Z</time>
</trkpt>
<trkpt lat="53.1475509" lon="18.1141436">
<ele>94</ele>
<time>2017-08-22T11:40:29Z</time>
</trkpt>
<trkpt lat="53.1475509" lon="18.1141436">
<ele>94</ele>
<time>2017-08-22T11:40:31Z</time>
</trkpt>
<trkpt lat="53.1475509" lon="18.1141436">
<ele>94</ele>
<time>2017-08-22T11:40:33Z</time>
</trkpt>
<trkpt lat="53.1475509" lon="18.1141436">
<ele>94</ele>
<time>2017-08-22T11:40:35Z</time>
</trkpt>
<trkpt lat="53.1475509" lon="18.1141436">
<ele>94</ele>
<time>2017-08-22T11:40:37Z</time>
</trkpt>
<trkpt lat="53.1475509" lon="18.1141436">
<ele>94</ele>
<time>2017-08-22T11:40:39Z</time>
</trkpt>
<trkpt lat="53.1475509" lon="18.1141436">
<ele>94</ele>
<time>2017-08-22T11:40:41Z</time>
</trkpt>
<trkpt lat="53.1475509" lon="18.1141436">
<ele>94</ele>
<time>2017-08-22T11:40:43Z</time>
</trkpt>
<trkpt lat="53.1475509" lon="18.1141436">
<ele>94</ele>
<time>2017-08-22T11:40:45Z</time>
</trkpt>
<trkpt lat="53.1475509" lon="18.1141436">
<ele>94</ele>
<time>2017-08-22T11:40:47Z</time>
</trkpt>
<trkpt lat="53.1475509" lon="18.1141436">
<ele>94</ele>
<time>2017-08-22T11:40:49Z</time>
</trkpt>
<trkpt lat="53.1475509" lon="18.1141436">
<ele>94</ele>
<time>2017-08-22T11:40:51Z</time>
</trkpt>
<trkpt lat="53.1475509" lon="18.1141436">
<ele>94</ele>
<time>2017-08-22T11:40:53Z</time>
</trkpt>
<trkpt lat="53.1475509" lon="18.1141436">
<ele>94</ele>
<time>2017-08-22T11:40:55Z</time>
</trkpt>
<trkpt lat="53.1475509" lon="18.1141436">
<ele>94</ele>
<time>2017-08-22T11:40:57Z</time>
</trkpt>
<trkpt lat="53.1475509" lon="18.1141436">
<ele>94</ele>
<time>2017-08-22T11:40:59Z</time>
</trkpt>
<trkpt lat="53.1475509" lon="18.1141436">
<ele>94</ele>
<time>2017-08-22T11:41:01Z</time>
</trkpt>
<trkpt lat="53.1475509" lon="18.1141436">
<ele>94</ele>
<time>2017-08-22T11:41:03Z</time>
</trkpt>
<trkpt lat="53.1475509" lon="18.1141436">
<ele>94</ele>
<time>2017-08-22T11:41:05Z</time>
</trkpt>
<trkpt lat="53.1475509" lon="18.1141436">
<ele>94</ele>
<time>2017-08-22T11:41:07Z</time>
</trkpt>
<trkpt lat="53.1475509" lon="18.1141436">
<ele>94</ele>
<time>2017-08-22T11:41:09Z</time>
</trkpt>
<trkpt lat="53.1475509" lon="18.1141436">
<ele>94</ele>
<time>2017-08-22T11:41:11Z</time>
</trkpt>
<trkpt lat="53.1475509" lon="18.1141436">
<ele>94</ele>
<time>2017-08-22T11:41:13Z</time>
</trkpt>
<trkpt lat="53.1475509" lon="18.1141436">
<ele>94</ele>
<time>2017-08-22T11:41:15Z</time>
</trkpt>
<trkpt lat="53.1475509" lon="18.1141436">
<ele>94</ele>
<time>2017-08-22T11:41:17Z</time>
</trkpt>
<trkpt lat="53.1475509" lon="18.1141436">
<ele>94</ele>
<time>2017-08-22T11:41:19Z</time>
</trkpt>
<trkpt lat="53.1475509" lon="18.1141436">
<ele>94</ele>
<time>2017-08-22T11:41:21Z</time>
</trkpt>
<trkpt lat="53.1475509" lon="18.1141436">
<ele>94</ele>
<time>2017-08-22T11:41:23Z</time>
</trkpt>
<trkpt lat="53.1475509" lon="18.1141436">
<ele>94</ele>
<time>2017-08-22T11:41:25Z</time>
</trkpt>
<trkpt lat="53.1475509" lon="18.1141436">
<ele>94</ele>
<time>2017-08-22T11:41:27Z</time>
</trkpt>
<trkpt lat="53.1475509" lon="18.1141436">
<ele>94</ele>
<time>2017-08-22T11:41:29Z</time>
</trkpt>
<trkpt lat="53.1475509" lon="18.1141436">
<ele>94</ele>
<time>2017-08-22T11:41:31Z</time>
</trkpt>
<trkpt lat="53.1475509" lon="18.1141436">
<ele>94</ele>
<time>2017-08-22T11:41:33Z</time>
</trkpt>
<trkpt lat="53.1475509" lon="18.1141436">
<ele>94</ele>
<time>2017-08-22T11:41:35Z</time>
</trkpt>
<trkpt lat="53.1475509" lon="18.1141436">
<ele>94</ele>
<time>2017-08-22T11:41:37Z</time>
</trkpt>
<trkpt lat="53.1475509" lon="18.1141436">
<ele>94</ele>
<time>2017-08-22T11:41:39Z</time>
</trkpt>
<trkpt lat="53.1475509" lon="18.1141436">
<ele>94</ele>
<time>2017-08-22T11:41:41Z</time>
</trkpt>
<trkpt lat="53.1475509" lon="18.1141436">
<ele>94</ele>
<time>2017-08-22T11:41:43Z</time>
</trkpt>
<trkpt lat="53.1475509" lon="18.1141436">
<ele>94</ele>
<time>2017-08-22T11:41:45Z</time>
</trkpt>
<trkpt lat="53.1475509" lon="18.1141436">
<ele>94</ele>
<time>2017-08-22T11:41:47Z</time>
</trkpt>
<trkpt lat="53.1475509" lon="18.1141436">
<ele>94</ele>
<time>2017-08-22T11:41:49Z</time>
</trkpt>
<trkpt lat="53.1475509" lon="18.1141436">
<ele>94</ele>
<time>2017-08-22T11:41:51Z</time>
</trkpt>
<trkpt lat="53.1475509" lon="18.1141436">
<ele>94</ele>
<time>2017-08-22T11:41:53Z</time>
</trkpt>
<trkpt lat="53.1475509" lon="18.1141436">
<ele>94</ele>
<time>2017-08-22T11:41:55Z</time>
</trkpt>
<trkpt lat="53.1475509" lon="18.1141436">
<ele>94</ele>
<time>2017-08-22T11:41:57Z</time>
</trkpt>
<trkpt lat="53.1475509" lon="18.1141436">
<ele>94</ele>
<time>2017-08-22T11:41:59Z</time>
</trkpt>
<trkpt lat="53.1475509" lon="18.1141436">
<ele>94</ele>
<time>2017-08-22T11:42:01Z</time>
</trkpt>
<trkpt lat="53.1475509" lon="18.1141436">
<ele>94</ele>
<time>2017-08-22T11:42:03Z</time>
</trkpt>
<trkpt lat="53.1475509" lon="18.1141436">
<ele>94</ele>
<time>2017-08-22T11:42:05Z</time>
</trkpt>
<trkpt lat="" lon="">
<ele></ele>
<time>2017-08-22TZ</time>
</trkpt>
</trkseg>
</trk>
<wpt lat="" lon="">
	<name></name>
	<desc></desc>
	<cmt></cmt>
	<photoid></photoid>
	<type></type>
</wpt>
</gpx>
